| time (UTC) | temp F | wind direction | speed MPH | gust MPH | rain 1hr in | rain 24hr in | rain mn in | humidity % | barometer mb |
| 20260507153418 | 58 | 203 | 10.0 | 18.0 | 0.00 | 0.00 | 0.05 | 65 | 1001.2 |
| 20260507153308 | 58 | 203 | 15.0 | 18.0 | 0.00 | 0.00 | 0.05 | 63 | 1001.3 |
| 20260507153157 | 58 | 225 | 11.0 | 17.0 | 0.00 | 0.00 | 0.05 | 65 | 1001.6 |
| 20260507153038 | 58 | 203 | 12.0 | 17.0 | 0.00 | 0.00 | 0.05 | 65 | 1001.4 |
| 20260507152938 | 58 | 203 | 9.0 | 17.0 | 0.00 | 0.00 | 0.05 | 66 | 1001.3 |
| 20260507152826 | 58 | 180 | 12.0 | 17.0 | 0.00 | 0.00 | 0.05 | 64 | 1001.5 |
| 20260507152718 | 58 | 203 | 15.0 | 17.0 | 0.00 | 0.00 | 0.05 | 63 | 1001.6 |
| 20260507152558 | 58 | 225 | 12.0 | 17.0 | 0.00 | 0.00 | 0.05 | 64 | 1001.7 |
| 20260507152450 | 57 | 203 | 10.0 | 17.0 | 0.00 | 0.00 | 0.05 | 66 | 1001.8 |
| 20260507152341 | 57 | 203 | 13.0 | 17.0 | 0.00 | 0.00 | 0.05 | 65 | 1001.8 |
| 20260507152239 | 57 | 203 | 9.0 | 17.0 | 0.00 | 0.00 | 0.05 | 65 | 1001.7 |
| 20260507152114 | 57 | 225 | 11.0 | 17.0 | 0.00 | 0.00 | 0.05 | 65 | 1001.8 |
| 20260507152013 | 57 | 203 | 12.0 | 17.0 | 0.00 | 0.00 | 0.05 | 65 | 1001.7 |
| 20260507151758 | 57 | 203 | 10.0 | 16.0 | 0.00 | 0.00 | 0.05 | 67 | 1001.9 |
| 20260507151634 | 57 | 203 | 11.0 | 16.0 | 0.00 | 0.00 | 0.05 | 66 | 1001.9 |
| 20260507151524 | 57 | 203 | 10.0 | 16.0 | 0.00 | 0.00 | 0.05 | 67 | 1001.8 |
| 20260507151422 | 57 | 203 | 8.0 | 16.0 | 0.00 | 0.00 | 0.05 | 68 | 1001.9 |
| 20260507151309 | 57 | 225 | 10.0 | 16.0 | 0.00 | 0.00 | 0.05 | 67 | 1002.1 |
| 20260507151153 | 57 | 225 | 11.0 | 16.0 | 0.00 | 0.00 | 0.05 | 66 | 1002.1 |
| 20260507151043 | 57 | 203 | 9.0 | 16.0 | 0.00 | 0.00 | 0.05 | 67 | 1002.1 |
| 20260507150942 | 57 | 225 | 11.0 | 16.0 | 0.00 | 0.00 | 0.05 | 67 | 1002.3 |
| 20260507150831 | 57 | 203 | 11.0 | 16.0 | 0.00 | 0.00 | 0.05 | 67 | 1002.4 |
| 20260507150712 | 57 | 180 | 11.0 | 16.0 | 0.00 | 0.00 | 0.05 | 66 | 1002.4 |
| 20260507150603 | 57 | 203 | 12.0 | 18.0 | 0.00 | 0.00 | 0.05 | 66 | 1002.3 |
| 20260507150500 | 57 | 225 | 11.0 | 18.0 | 0.00 | 0.00 | 0.05 | 68 | 1002.4 |
| 20260507150433 | 57 | 225 | 11.0 | 18.0 | 0.00 | 0.00 | 0.05 | 68 | 1002.5 |
| 20260507150233 | 57 | 203 | 11.0 | 18.0 | 0.00 | 0.00 | 0.05 | 67 | 1002.0 |
| 20260507150123 | 56 | 180 | 11.0 | 18.0 | 0.00 | 0.00 | 0.05 | 66 | 1002.1 |
| 20260507150013 | 56 | 203 | 12.0 | 18.0 | 0.00 | 0.00 | 0.05 | 67 | 1002.1 |
| 20260507145751 | 56 | 225 | 10.0 | 18.0 | 0.00 | 0.00 | 0.05 | 68 | 1002.0 |
| 20260507145644 | 56 | 203 | 11.0 | 18.0 | 0.00 | 0.00 | 0.05 | 68 | 1001.9 |
| 20260507145532 | 56 | 225 | 11.0 | 16.0 | 0.00 | 0.00 | 0.05 | 68 | 1002.0 |
| 20260507145422 | 56 | 203 | 11.0 | 16.0 | 0.00 | 0.00 | 0.05 | 68 | 1002.1 |
| 20260507145155 | 56 | 203 | 11.0 | 16.0 | 0.00 | 0.00 | 0.05 | 68 | 1002.0 |
| 20260507145050 | 56 | 203 | 11.0 | 16.0 | 0.00 | 0.00 | 0.05 | 68 | 1002.0 |
| 20260507144942 | 56 | 203 | 11.0 | 16.0 | 0.00 | 0.00 | 0.05 | 69 | 1002.0 |
| 20260507144824 | 56 | 203 | 11.0 | 17.0 | 0.00 | 0.00 | 0.05 | 68 | 1001.9 |
| 20260507144714 | 56 | 203 | 11.0 | 18.0 | 0.00 | 0.00 | 0.05 | 67 | 1001.9 |
| 20260507144611 | 56 | 225 | 12.0 | 18.0 | 0.00 | 0.00 | 0.05 | 68 | 1001.7 |
| 20260507144501 | 56 | 203 | 9.0 | 18.0 | 0.00 | 0.00 | 0.05 | 70 | 1001.7 |
| 20260507144342 | 56 | 180 | 9.0 | 18.0 | 0.00 | 0.00 | 0.05 | 69 | 1001.6 |
| 20260507144231 | 56 | 203 | 13.0 | 18.0 | 0.00 | 0.00 | 0.05 | 68 | 1001.6 |
| 20260507144125 | 56 | 203 | 13.0 | 18.0 | 0.00 | 0.00 | 0.05 | 67 | 1001.6 |
| 20260507144022 | 56 | 180 | 12.0 | 18.0 | 0.00 | 0.00 | 0.05 | 68 | 1001.8 |
| 20260507143856 | 56 | 180 | 14.0 | 18.0 | 0.00 | 0.00 | 0.05 | 66 | 1001.6 |
| 20260507143802 | 56 | 225 | 12.0 | 16.0 | 0.00 | 0.00 | 0.05 | 67 | 1001.5 |
| 20260507143644 | 56 | 203 | 11.0 | 16.0 | 0.00 | 0.00 | 0.05 | 68 | 1001.6 |
| 20260507143540 | 56 | 203 | 11.0 | 16.0 | 0.00 | 0.00 | 0.05 | 68 | 1001.7 |
| 20260507143415 | 56 | 203 | 11.0 | 16.0 | 0.00 | 0.00 | 0.05 | 68 | 1001.8 |
| 20260507143313 | 56 | 203 | 11.0 | 16.0 | 0.00 | 0.00 | 0.05 | 68 | 1001.8 |
| 20260507143200 | 56 | 203 | 11.0 | 16.0 | 0.00 | 0.00 | 0.05 | 69 | 1001.8 |
| 20260507143052 | 56 | 203 | 13.0 | 16.0 | 0.00 | 0.00 | 0.05 | 68 | 1001.9 |
| 20260507142933 | 56 | 180 | 8.0 | 16.0 | 0.00 | 0.00 | 0.05 | 70 | 1001.9 |
| 20260507142832 | 56 | 225 | 10.0 | 16.0 | 0.00 | 0.00 | 0.05 | 69 | 1001.9 |
| 20260507142611 | 56 | 180 | 10.0 | 16.0 | 0.00 | 0.00 | 0.05 | 70 | 1001.9 |
| 20260507142451 | 57 | 203 | 11.0 | 16.0 | 0.00 | 0.00 | 0.05 | 70 | 1001.9 |
| 20260507142343 | 57 | 225 | 10.0 | 16.0 | 0.00 | 0.00 | 0.05 | 69 | 1001.9 |
| 20260507142241 | 57 | 203 | 11.0 | 17.0 | 0.00 | 0.00 | 0.05 | 71 | 1001.9 |
| 20260507142131 | 57 | 203 | 13.0 | 17.0 | 0.00 | 0.00 | 0.05 | 68 | 1001.8 |
| 20260507142012 | 57 | 180 | 11.0 | 17.0 | 0.00 | 0.00 | 0.05 | 68 | 1001.6 |
| 20260507141904 | 57 | 203 | 11.0 | 17.0 | 0.00 | 0.00 | 0.05 | 70 | 1001.7 |
| 20260507141754 | 57 | 225 | 9.0 | 17.0 | 0.00 | 0.00 | 0.05 | 70 | 1001.7 |
| 20260507141644 | 57 | 203 | 10.0 | 17.0 | 0.00 | 0.00 | 0.05 | 71 | 1001.6 |
| 20260507141533 | 57 | 203 | 11.0 | 17.0 | 0.00 | 0.00 | 0.05 | 71 | 1001.6 |
| 20260507141425 | 57 | 203 | 11.0 | 17.0 | 0.00 | 0.00 | 0.05 | 71 | 1001.7 |
| 20260507141339 | 57 | 203 | 11.0 | 17.0 | 0.00 | 0.00 | 0.05 | 71 | 1001.4 |
| 20260507141256 | 56 | 225 | 11.0 | 16.0 | 0.00 | 0.00 | 0.05 | 71 | 1001.5 |
| 20260507141051 | 56 | 203 | 11.0 | 16.0 | 0.00 | 0.00 | 0.05 | 70 | 1001.5 |
| 20260507140943 | 56 | 180 | 10.0 | 16.0 | 0.00 | 0.00 | 0.05 | 72 | 1001.4 |
| 20260507140834 | 56 | 203 | 10.0 | 16.0 | 0.00 | 0.00 | 0.05 | 71 | 1001.4 |
| 20260507140724 | 56 | 180 | 11.0 | 16.0 | 0.00 | 0.00 | 0.05 | 72 | 1001.2 |
| 20260507140606 | 56 | 203 | 11.0 | 16.0 | 0.00 | 0.00 | 0.05 | 72 | 1001.4 |
| 20260507140457 | 56 | 203 | 11.0 | 16.0 | 0.00 | 0.00 | 0.05 | 73 | 1001.2 |
| 20260507140348 | 56 | 203 | 13.0 | 16.0 | 0.00 | 0.00 | 0.05 | 71 | 1001.4 |
| 20260507140246 | 56 | 180 | 10.0 | 16.0 | 0.00 | 0.00 | 0.05 | 71 | 1001.5 |
| 20260507140013 | 56 | 180 | 10.0 | 16.0 | 0.00 | 0.00 | 0.05 | 73 | 1001.2 |
| 20260507135905 | 56 | 203 | 11.0 | 16.0 | 0.00 | 0.00 | 0.05 | 72 | 1001.2 |
| 20260507135805 | 56 | 203 | 11.0 | 15.0 | 0.00 | 0.00 | 0.05 | 72 | 1001.2 |
| 20260507135640 | 56 | 203 | 9.0 | 14.0 | 0.00 | 0.00 | 0.05 | 72 | 1001.3 |
| 20260507135535 | 56 | 180 | 7.0 | 14.0 | 0.00 | 0.00 | 0.05 | 74 | 1001.2 |
| 20260507135425 | 56 | 203 | 7.0 | 14.0 | 0.00 | 0.00 | 0.05 | 74 | 1001.1 |
| 20260507135317 | 56 | 203 | 8.0 | 14.0 | 0.00 | 0.00 | 0.05 | 73 | 1001.4 |
| 20260507135201 | 56 | 180 | 8.0 | 14.0 | 0.00 | 0.00 | 0.05 | 73 | 1001.6 |
| 20260507135050 | 56 | 203 | 8.0 | 14.0 | 0.00 | 0.00 | 0.05 | 72 | 1001.4 |
| 20260507134942 | 56 | 203 | 9.0 | 14.0 | 0.00 | 0.00 | 0.05 | 72 | 1001.5 |
| 20260507134839 | 56 | 203 | 10.0 | 14.0 | 0.00 | 0.00 | 0.05 | 71 | 1001.6 |
| 20260507134721 | 56 | 225 | 9.0 | 13.0 | 0.00 | 0.00 | 0.05 | 73 | 1001.4 |
| 20260507134621 | 56 | 180 | 8.0 | 13.0 | 0.00 | 0.00 | 0.05 | 71 | 1001.4 |
| 20260507134500 | 56 | 180 | 8.0 | 14.0 | 0.00 | 0.00 | 0.05 | 71 | 1001.5 |
| 20260507134357 | 56 | 158 | 9.0 | 14.0 | 0.00 | 0.00 | 0.05 | 72 | 1001.4 |
| 20260507134238 | 56 | 203 | 6.0 | 14.0 | 0.00 | 0.00 | 0.05 | 72 | 1001.5 |
| 20260507134129 | 56 | 203 | 8.0 | 14.0 | 0.00 | 0.00 | 0.05 | 72 | 1001.7 |
| 20260507134027 | 56 | 180 | 9.0 | 14.0 | 0.00 | 0.00 | 0.05 | 72 | 1001.7 |
| 20260507133916 | 56 | 203 | 8.0 | 15.0 | 0.00 | 0.00 | 0.05 | 72 | 1001.8 |
| 20260507133758 | 56 | 225 | 8.0 | 15.0 | 0.00 | 0.00 | 0.05 | 71 | 1001.7 |
| 20260507133645 | 56 | 180 | 8.0 | 16.0 | 0.00 | 0.00 | 0.05 | 71 | 1001.7 |
| 20260507133435 | 56 | 180 | 8.0 | 16.0 | 0.00 | 0.00 | 0.05 | 70 | 1001.6 |
| 20260507133308 | 56 | 180 | 8.0 | 16.0 | 0.00 | 0.00 | 0.05 | 70 | 1001.6 |
| 20260507133200 | 56 | 180 | 9.0 | 16.0 | 0.00 | 0.00 | 0.05 | 68 | 1001.6 |
| 20260507133101 | 56 | 180 | 11.0 | 16.0 | 0.00 | 0.00 | 0.05 | 69 | 1001.5 |
| 20260507132951 | 56 | 203 | 11.0 | 16.0 | 0.00 | 0.00 | 0.05 | 70 | 1001.5 |
| 20260507132830 | 56 | 158 | 8.0 | 16.0 | 0.00 | 0.00 | 0.05 | 69 | 1001.5 |
| 20260507132722 | 56 | 158 | 11.0 | 16.0 | 0.00 | 0.00 | 0.05 | 67 | 1001.4 |
| 20260507132612 | 56 | 158 | 10.0 | 16.0 | 0.00 | 0.00 | 0.05 | 68 | 1001.5 |
| 20260507132508 | 56 | 203 | 8.0 | 16.0 | 0.00 | 0.00 | 0.05 | 68 | 1001.3 |
| 20260507132352 | 56 | 203 | 8.0 | 16.0 | 0.00 | 0.00 | 0.05 | 71 | 1001.2 |
| 20260507132241 | 56 | 180 | 7.0 | 16.0 | 0.00 | 0.00 | 0.05 | 71 | 1001.2 |
| 20260507132149 | 56 | 158 | 7.0 | 16.0 | 0.00 | 0.00 | 0.05 | 69 | 1001.0 |
| 20260507132122 | 56 | 158 | 7.0 | 16.0 | 0.00 | 0.00 | 0.05 | 69 | 1000.9 |
| 20260507131908 | 56 | 203 | 8.0 | 16.0 | 0.00 | 0.00 | 0.05 | 69 | 1000.8 |
| 20260507131800 | 56 | 180 | 10.0 | 16.0 | 0.00 | 0.00 | 0.05 | 69 | 1000.8 |
| 20260507131649 | 56 | 203 | 8.0 | 15.0 | 0.00 | 0.00 | 0.05 | 69 | 1001.0 |
| 20260507131540 | 56 | 158 | 9.0 | 15.0 | 0.00 | 0.00 | 0.05 | 71 | 1000.7 |
| 20260507131421 | 56 | 158 | 8.0 | 14.0 | 0.00 | 0.00 | 0.05 | 69 | 1000.9 |
| 20260507131313 | 56 | 158 | 11.0 | 14.0 | 0.00 | 0.00 | 0.05 | 68 | 1000.9 |
| 20260507131211 | 56 | 225 | 11.0 | 14.0 | 0.00 | 0.00 | 0.05 | 69 | 1001.0 |
| 20260507131128 | 56 | 180 | 9.0 | 11.0 | 0.00 | 0.00 | 0.05 | 70 | 1001.2 |
| 20260507131056 | 56 | 180 | 8.0 | 13.0 | 0.00 | 0.00 | 0.05 | 70 | 1001.1 |
| 20260507130834 | 56 | 180 | 7.0 | 13.0 | 0.00 | 0.00 | 0.05 | 70 | 1001.1 |
| 20260507130734 | 56 | 135 | 7.0 | 13.0 | 0.00 | 0.00 | 0.05 | 69 | 1000.9 |
| 20260507130659 | 56 | 180 | 7.0 | 13.0 | 0.00 | 0.00 | 0.05 | 69 | 1001.0 |
| 20260507130614 | 56 | 180 | 8.0 | 14.0 | 0.00 | 0.00 | 0.05 | 68 | 1001.2 |
| 20260507130350 | 56 | 180 | 8.0 | 14.0 | 0.00 | 0.00 | 0.05 | 70 | 1001.4 |
| 20260507130242 | 56 | 203 | 10.0 | 14.0 | 0.00 | 0.00 | 0.05 | 70 | 1001.9 |
| 20260507130134 | 56 | 180 | 8.0 | 14.0 | 0.00 | 0.00 | 0.05 | 70 | 1001.6 |
| 20260507130015 | 56 | 203 | 9.0 | 17.0 | 0.00 | 0.00 | 0.05 | 70 | 1001.5 |
| 20260507125911 | 56 | 203 | 9.0 | 20.0 | 0.00 | 0.00 | 0.05 | 70 | 1001.6 |
| 20260507125803 | 56 | 180 | 8.0 | 20.0 | 0.00 | 0.00 | 0.05 | 71 | 1001.6 |
| 20260507125653 | 56 | 180 | 10.0 | 20.0 | 0.00 | 0.00 | 0.05 | 71 | 1001.6 |
| 20260507125537 | 56 | 158 | 10.0 | 20.0 | 0.00 | 0.00 | 0.05 | 70 | 1001.5 |
| 20260507125325 | 56 | 203 | 10.0 | 20.0 | 0.00 | 0.00 | 0.05 | 71 | 1001.5 |
| 20260507125215 | 56 | 203 | 9.0 | 20.0 | 0.00 | 0.00 | 0.05 | 72 | 1001.4 |
| 20260507125058 | 56 | 180 | 11.0 | 20.0 | 0.00 | 0.00 | 0.05 | 72 | 1001.4 |
| 20260507124946 | 56 | 180 | 13.0 | 20.0 | 0.00 | 0.00 | 0.05 | 71 | 1001.5 |
| 20260507124835 | 56 | 203 | 12.0 | 17.0 | 0.00 | 0.00 | 0.05 | 71 | 1001.4 |
| 20260507124622 | 56 | 180 | 11.0 | 17.0 | 0.00 | 0.00 | 0.05 | 71 | 1001.2 |
| 20260507124547 | 56 | 180 | 11.0 | 17.0 | 0.00 | 0.00 | 0.05 | 72 | 1001.3 |
| 20260507124508 | 56 | 203 | 11.0 | 18.0 | 0.00 | 0.00 | 0.05 | 71 | 1001.1 |
| 20260507124250 | 56 | 203 | 11.0 | 18.0 | 0.00 | 0.00 | 0.05 | 71 | 1001.0 |
| 20260507124132 | 56 | 203 | 11.0 | 18.0 | 0.00 | 0.00 | 0.05 | 71 | 1001.1 |
| 20260507124030 | 56 | 203 | 12.0 | 18.0 | 0.00 | 0.00 | 0.05 | 71 | 1001.0 |
| 20260507123914 | 56 | 158 | 11.0 | 18.0 | 0.00 | 0.00 | 0.05 | 71 | 1001.0 |
| 20260507123804 | 56 | 203 | 12.0 | 18.0 | 0.00 | 0.00 | 0.05 | 71 | 1000.8 |
| 20260507123646 | 56 | 158 | 12.0 | 20.0 | 0.00 | 0.00 | 0.05 | 70 | 1000.6 |
| 20260507123546 | 56 | 203 | 10.0 | 20.0 | 0.00 | 0.00 | 0.05 | 72 | 1000.7 |
| 20260507123517 | 57 | 158 | 15.0 | 20.0 | 0.00 | 0.00 | 0.05 | 71 | 1000.4 |
| 20260507123324 | 56 | 180 | 12.0 | 20.0 | 0.00 | 0.00 | 0.05 | 71 | 1000.5 |
| 20260507123208 | 56 | 203 | 14.0 | 20.0 | 0.00 | 0.00 | 0.05 | 71 | 1000.2 |
| 20260507123058 | 56 | 180 | 12.0 | 20.0 | 0.00 | 0.00 | 0.05 | 71 | 1000.4 |
| 20260507122950 | 56 | 203 | 13.0 | 21.0 | 0.00 | 0.00 | 0.05 | 71 | 1000.2 |
| 20260507122842 | 56 | 158 | 11.0 | 21.0 | 0.00 | 0.00 | 0.05 | 72 | 1000.1 |
| 20260507122724 | 56 | 180 | 13.0 | 23.0 | 0.00 | 0.00 | 0.05 | 72 | 999.9 |
| 20260507122622 | 57 | 158 | 13.0 | 23.0 | 0.00 | 0.00 | 0.05 | 72 | 999.9 |
| 20260507122511 | 57 | 203 | 13.0 | 23.0 | 0.00 | 0.00 | 0.05 | 71 | 999.9 |
| 20260507122402 | 57 | 203 | 14.0 | 23.0 | 0.00 | 0.00 | 0.05 | 71 | 999.7 |
| 20260507122243 | 56 | 180 | 15.0 | 23.0 | 0.00 | 0.00 | 0.05 | 70 | 999.9 |
| 20260507122133 | 57 | 180 | 14.0 | 23.0 | 0.00 | 0.00 | 0.05 | 71 | 1000.0 |
| 20260507122033 | 57 | 158 | 16.0 | 23.0 | 0.00 | 0.00 | 0.05 | 70 | 1000.0 |
| 20260507121920 | 57 | 158 | 15.0 | 23.0 | 0.00 | 0.00 | 0.05 | 71 | 1000.1 |
| 20260507121651 | 56 | 203 | 14.0 | 20.0 | 0.00 | 0.00 | 0.05 | 71 | 1000.0 |
| 20260507121543 | 56 | 180 | 13.0 | 20.0 | 0.00 | 0.00 | 0.05 | 73 | 1000.0 |
| 20260507121457 | 56 | 180 | 10.0 | 20.0 | 0.00 | 0.00 | 0.05 | 73 | 999.8 |
| 20260507121421 | 56 | 203 | 11.0 | 20.0 | 0.00 | 0.00 | 0.05 | 72 | 999.9 |
| 20260507121211 | 56 | 180 | 12.0 | 20.0 | 0.00 | 0.00 | 0.05 | 73 | 999.9 |
| 20260507121103 | 56 | 113 | 11.0 | 20.0 | 0.00 | 0.00 | 0.05 | 73 | 1000.2 |
| 20260507120952 | 56 | 158 | 11.0 | 21.0 | 0.00 | 0.00 | 0.05 | 73 | 1000.0 |
| 20260507120836 | 56 | 203 | 15.0 | 21.0 | 0.00 | 0.00 | 0.05 | 71 | 999.9 |
| 20260507120732 | 56 | 180 | 12.0 | 21.0 | 0.00 | 0.00 | 0.05 | 72 | 999.9 |
| 20260507120624 | 57 | 203 | 9.0 | 21.0 | 0.00 | 0.00 | 0.05 | 72 | 999.7 |
| 20260507120514 | 57 | 158 | 8.0 | 21.0 | 0.00 | 0.00 | 0.05 | 72 | 999.6 |
| 20260507120352 | 57 | 180 | 15.0 | 21.0 | 0.00 | 0.00 | 0.05 | 71 | 999.5 |
| 20260507120252 | 57 | 180 | 11.0 | 21.0 | 0.00 | 0.00 | 0.05 | 71 | 999.7 |
| 20260507120034 | 56 | 180 | 12.0 | 21.0 | 0.00 | 0.00 | 0.05 | 72 | 999.3 |
| 20260507115913 | 57 | 180 | 11.0 | 21.0 | 0.00 | 0.00 | 0.05 | 72 | 999.3 |
| 20260507115805 | 57 | 158 | 9.0 | 21.0 | 0.00 | 0.00 | 0.05 | 72 | 999.3 |
| 20260507115655 | 57 | 180 | 13.0 | 23.0 | 0.00 | 0.00 | 0.05 | 72 | 999.3 |
| 20260507115553 | 57 | 180 | 11.0 | 24.0 | 0.00 | 0.00 | 0.05 | 71 | 999.3 |
| 20260507115443 | 57 | 135 | 14.0 | 27.0 | 0.00 | 0.00 | 0.05 | 72 | 999.1 |
| 20260507115407 | 56 | 180 | 15.0 | 27.0 | 0.00 | 0.00 | 0.05 | 70 | 999.1 |
| 20260507115330 | 56 | 180 | 12.0 | 27.0 | 0.00 | 0.00 | 0.05 | 72 | 999.1 |
| 20260507115104 | 57 | 180 | 13.0 | 27.0 | 0.00 | 0.00 | 0.05 | 72 | 999.1 |
| 20260507114947 | 57 | 158 | 11.0 | 27.0 | 0.00 | 0.00 | 0.05 | 72 | 998.9 |
| 20260507114839 | 57 | 158 | 12.0 | 27.0 | 0.00 | 0.00 | 0.05 | 71 | 998.8 |
| 20260507114736 | 57 | 180 | 15.0 | 27.0 | 0.00 | 0.00 | 0.05 | 72 | 998.7 |
| 20260507114630 | 57 | 180 | 17.0 | 27.0 | 0.00 | 0.00 | 0.05 | 72 | 999.1 |
| 20260507114510 | 57 | 180 | 20.0 | 27.0 | 0.00 | 0.00 | 0.05 | 71 | 999.0 |
| 20260507114358 | 57 | 203 | 16.0 | 25.0 | 0.00 | 0.00 | 0.05 | 72 | 999.0 |
| 20260507114331 | 57 | 180 | 13.0 | 25.0 | 0.00 | 0.00 | 0.05 | 71 | 998.8 |
| 20260507114145 | 57 | 180 | 15.0 | 25.0 | 0.00 | 0.00 | 0.05 | 71 | 998.5 |
| 20260507114029 | 57 | 203 | 18.0 | 25.0 | 0.00 | 0.00 | 0.05 | 70 | 998.5 |
| 20260507113916 | 57 | 180 | 16.0 | 23.0 | 0.00 | 0.00 | 0.05 | 71 | 998.5 |
| 20260507113807 | 57 | 180 | 15.0 | 23.0 | 0.00 | 0.00 | 0.05 | 73 | 998.6 |
| 20260507113706 | 57 | 180 | 15.0 | 24.0 | 0.00 | 0.00 | 0.05 | 73 | 998.3 |
| 20260507113547 | 57 | 203 | 16.0 | 24.0 | 0.00 | 0.00 | 0.05 | 72 | 998.3 |
| 20260507113437 | 57 | 180 | 15.0 | 24.0 | 0.00 | 0.00 | 0.05 | 73 | 998.2 |
| 20260507113328 | 57 | 180 | 14.0 | 24.0 | 0.00 | 0.00 | 0.05 | 72 | 998.1 |
| 20260507113218 | 57 | 180 | 13.0 | 24.0 | 0.00 | 0.00 | 0.05 | 73 | 998.0 |
| 20260507113059 | 57 | 180 | 13.0 | 27.0 | 0.00 | 0.00 | 0.05 | 72 | 997.9 |
| 20260507112951 | 57 | 180 | 16.0 | 27.0 | 0.00 | 0.00 | 0.05 | 72 | 998.2 |
| 20260507112849 | 57 | 180 | 14.0 | 27.0 | 0.00 | 0.00 | 0.05 | 73 | 998.1 |
| 20260507112806 | 57 | 203 | 15.0 | 27.0 | 0.00 | 0.00 | 0.05 | 72 | 998.2 |
| 20260507112729 | 57 | 135 | 16.0 | 27.0 | 0.00 | 0.00 | 0.05 | 72 | 998.2 |
| 20260507112514 | 57 | 180 | 19.0 | 27.0 | 0.00 | 0.00 | 0.05 | 71 | 998.1 |
| 20260507112403 | 57 | 158 | 15.0 | 27.0 | 0.00 | 0.00 | 0.05 | 73 | 998.3 |
| 20260507112301 | 57 | 180 | 17.0 | 27.0 | 0.00 | 0.00 | 0.05 | 73 | 998.3 |
| 20260507112226 | 57 | 180 | 17.0 | 27.0 | 0.00 | 0.00 | 0.05 | 72 | 998.2 |
| 20260507112031 | 57 | 158 | 15.0 | 25.0 | 0.00 | 0.00 | 0.05 | 73 | 998.0 |
| 20260507111921 | 57 | 180 | 14.0 | 25.0 | 0.00 | 0.00 | 0.05 | 74 | 997.9 |
| 20260507111818 | 57 | 180 | 17.0 | 25.0 | 0.00 | 0.00 | 0.05 | 73 | 997.9 |
| 20260507111651 | 57 | 203 | 16.0 | 25.0 | 0.00 | 0.00 | 0.05 | 73 | 997.6 |
| 20260507111547 | 57 | 90 | 17.0 | 24.0 | 0.00 | 0.00 | 0.05 | 73 | 997.7 |
| 20260507111439 | 57 | 203 | 14.0 | 24.0 | 0.00 | 0.00 | 0.05 | 74 | 997.5 |
| 20260507111334 | 57 | 180 | 14.0 | 24.0 | 0.00 | 0.00 | 0.05 | 73 | 997.5 |
| 20260507111213 | 57 | 158 | 17.0 | 24.0 | 0.00 | 0.00 | 0.05 | 74 | 997.4 |
| 20260507111113 | 56 | 203 | 15.0 | 23.0 | 0.00 | 0.00 | 0.05 | 74 | 997.7 |
| 20260507110955 | 56 | 180 | 13.0 | 23.0 | 0.00 | 0.00 | 0.05 | 76 | 997.5 |
| 20260507110853 | 57 | 180 | 11.0 | 23.0 | 0.00 | 0.00 | 0.05 | 75 | 997.3 |
| 20260507110734 | 57 | 203 | 12.0 | 23.0 | 0.00 | 0.00 | 0.05 | 75 | 997.5 |
| 20260507110659 | 57 | 180 | 13.0 | 23.0 | 0.00 | 0.00 | 0.05 | 74 | 997.6 |
| 20260507110521 | 57 | 180 | 14.0 | 23.0 | 0.00 | 0.00 | 0.05 | 75 | 997.7 |
| 20260507110412 | 57 | 203 | 13.0 | 23.0 | 0.00 | 0.00 | 0.05 | 75 | 997.6 |
| 20260507110253 | 57 | 135 | 15.0 | 23.0 | 0.00 | 0.00 | 0.05 | 73 | 998.0 |
| 20260507110143 | 57 | 203 | 15.0 | 23.0 | 0.00 | 0.00 | 0.05 | 73 | 997.7 |
| 20260507105922 | 57 | 203 | 12.0 | 23.0 | 0.00 | 0.00 | 0.05 | 73 | 997.7 |
| 20260507105804 | 57 | 180 | 13.0 | 23.0 | 0.00 | 0.00 | 0.05 | 73 | 997.8 |
| 20260507105701 | 57 | 180 | 12.0 | 22.0 | 0.00 | 0.00 | 0.05 | 72 | 997.8 |
| 20260507105552 | 57 | 180 | 15.0 | 23.0 | 0.00 | 0.00 | 0.05 | 72 | 997.9 |
| 20260507105447 | 57 | 113 | 14.0 | 23.0 | 0.00 | 0.00 | 0.05 | 72 | 997.6 |
| 20260507105329 | 57 | 158 | 12.0 | 23.0 | 0.00 | 0.00 | 0.05 | 73 | 997.5 |
| 20260507105223 | 57 | 180 | 15.0 | 23.0 | 0.00 | 0.00 | 0.05 | 74 | 997.3 |
| 20260507105114 | 57 | 203 | 14.0 | 23.0 | 0.00 | 0.00 | 0.05 | 74 | 997.2 |
| 20260507105003 | 57 | 180 | 16.0 | 23.0 | 0.00 | 0.00 | 0.05 | 73 | 997.2 |
| 20260507104845 | 57 | 180 | 15.0 | 23.0 | 0.00 | 0.00 | 0.05 | 74 | 997.4 |
| 20260507104737 | 57 | 180 | 15.0 | 23.0 | 0.00 | 0.00 | 0.05 | 73 | 997.3 |
| 20260507104632 | 57 | 180 | 15.0 | 23.0 | 0.00 | 0.00 | 0.05 | 75 | 997.3 |
| 20260507104522 | 57 | 158 | 11.0 | 21.0 | 0.00 | 0.00 | 0.05 | 76 | 997.4 |
| 20260507104403 | 57 | 135 | 16.0 | 21.0 | 0.00 | 0.00 | 0.05 | 75 | 997.4 |
| 20260507104254 | 57 | 158 | 11.0 | 18.0 | 0.00 | 0.00 | 0.05 | 75 | 997.4 |
| 20260507104144 | 57 | 158 | 11.0 | 20.0 | 0.00 | 0.00 | 0.05 | 76 | 997.5 |
| 20260507104036 | 58 | 158 | 9.0 | 20.0 | 0.00 | 0.00 | 0.05 | 77 | 997.6 |
| 20260507103918 | 58 | 158 | 10.0 | 20.0 | 0.00 | 0.00 | 0.05 | 77 | 997.9 |
| 20260507103810 | 58 | 158 | 10.0 | 20.0 | 0.00 | 0.00 | 0.05 | 78 | 998.1 |
| 20260507103701 | 58 | 203 | 9.0 | 21.0 | 0.00 | 0.00 | 0.05 | 77 | 997.9 |
| 20260507103617 | 58 | 158 | 10.0 | 21.0 | 0.00 | 0.00 | 0.05 | 77 | 998.1 |
| 20260507103548 | 58 | 113 | 11.0 | 21.0 | 0.00 | 0.00 | 0.05 | 76 | 998.1 |
| 20260507103327 | 58 | 180 | 12.0 | 21.0 | 0.00 | 0.00 | 0.05 | 77 | 998.1 |
| 20260507103226 | 58 | 158 | 15.0 | 21.0 | 0.00 | 0.00 | 0.05 | 77 | 998.1 |
| 20260507103115 | 58 | 180 | 10.0 | 21.0 | 0.00 | 0.00 | 0.05 | 79 | 998.1 |
| 20260507102955 | 58 | 135 | 9.0 | 21.0 | 0.00 | 0.00 | 0.05 | 79 | 998.1 |
| 20260507102846 | 58 | 180 | 11.0 | 21.0 | 0.00 | 0.00 | 0.05 | 79 | 998.3 |
| 20260507102738 | 58 | 180 | 14.0 | 21.0 | 0.00 | 0.00 | 0.05 | 78 | 998.4 |
| 20260507102636 | 58 | 180 | 11.0 | 18.0 | 0.00 | 0.00 | 0.05 | 79 | 998.4 |
| 20260507102517 | 58 | 180 | 11.0 | 18.0 | 0.00 | 0.00 | 0.05 | 79 | 998.6 |
| 20260507102407 | 58 | 180 | 13.0 | 18.0 | 0.00 | 0.00 | 0.05 | 78 | 998.7 |
| 20260507102256 | 58 | 180 | 13.0 | 17.0 | 0.00 | 0.00 | 0.05 | 79 | 998.8 |
| 20260507102154 | 58 | 203 | 11.0 | 18.0 | 0.00 | 0.00 | 0.05 | 79 | 998.8 |
| 20260507102035 | 58 | 158 | 11.0 | 18.0 | 0.00 | 0.00 | 0.05 | 79 | 998.8 |
| 20260507101930 | 58 | 180 | 11.0 | 18.0 | 0.00 | 0.00 | 0.05 | 80 | 998.8 |
| 20260507101812 | 58 | 180 | 11.0 | 18.0 | 0.00 | 0.00 | 0.05 | 80 | 998.8 |
| 20260507101712 | 58 | 180 | 10.0 | 18.0 | 0.00 | 0.00 | 0.05 | 80 | 998.7 |
| 20260507101546 | 59 | 180 | 11.0 | 18.0 | 0.00 | 0.00 | 0.05 | 79 | 998.7 |
| 20260507101446 | 59 | 180 | 11.0 | 18.0 | 0.00 | 0.00 | 0.05 | 79 | 998.5 |
| 20260507101331 | 59 | 158 | 11.0 | 18.0 | 0.00 | 0.00 | 0.05 | 80 | 998.4 |
| 20260507101229 | 59 | 158 | 12.0 | 18.0 | 0.00 | 0.00 | 0.05 | 80 | 998.3 |
| 20260507101104 | 59 | 113 | 11.0 | 18.0 | 0.00 | 0.00 | 0.05 | 80 | 998.2 |
| 20260507101002 | 59 | 158 | 14.0 | 18.0 | 0.00 | 0.00 | 0.05 | 80 | 998.2 |
| 20260507100743 | 59 | 158 | 11.0 | 18.0 | 0.00 | 0.00 | 0.05 | 82 | 998.2 |
| 20260507100624 | 59 | 113 | 15.0 | 20.0 | 0.00 | 0.00 | 0.05 | 82 | 998.2 |
| 20260507100520 | 59 | 135 | 12.0 | 20.0 | 0.00 | 0.00 | 0.05 | 82 | 998.2 |
| 20260507100409 | 59 | 158 | 11.0 | 20.0 | 0.00 | 0.00 | 0.05 | 83 | 998.4 |
| 20260507100305 | 59 | 158 | 11.0 | 20.0 | 0.00 | 0.00 | 0.05 | 83 | 998.5 |
| 20260507100146 | 59 | 158 | 12.0 | 20.0 | 0.00 | 0.00 | 0.05 | 83 | 998.6 |
| 20260507100038 | 59 | 158 | 11.0 | 20.0 | 0.00 | 0.00 | 0.05 | 83 | 998.7 |
| 20260507095927 | 59 | 180 | 11.0 | 20.0 | 0.00 | 0.00 | 0.05 | 83 | 998.5 |
| 20260507095825 | 60 | 203 | 11.0 | 20.0 | 0.00 | 0.00 | 0.05 | 83 | 998.6 |
| 20260507095702 | 60 | 158 | 11.0 | 20.0 | 0.00 | 0.00 | 0.05 | 83 | 998.5 |
| 20260507095552 | 60 | 158 | 13.0 | 22.0 | 0.00 | 0.00 | 0.05 | 83 | 998.4 |
| 20260507095443 | 60 | 180 | 12.0 | 22.0 | 0.00 | 0.00 | 0.05 | 84 | 998.5 |
| 20260507095342 | 60 | 113 | 11.0 | 22.0 | 0.00 | 0.00 | 0.05 | 84 | 998.6 |
| 20260507095222 | 60 | 135 | 11.0 | 22.0 | 0.00 | 0.00 | 0.05 | 84 | 998.7 |
| 20260507095113 | 60 | 180 | 11.0 | 22.0 | 0.00 | 0.00 | 0.05 | 84 | 998.9 |
| 20260507095003 | 60 | 180 | 11.0 | 22.0 | 0.00 | 0.00 | 0.05 | 84 | 998.8 |
| 20260507094854 | 60 | 180 | 12.0 | 22.0 | 0.00 | 0.00 | 0.05 | 84 | 999.1 |
| 20260507094735 | 60 | 158 | 11.0 | 22.0 | 0.00 | 0.00 | 0.05 | 84 | 998.9 |
| 20260507094627 | 60 | 135 | 14.0 | 22.0 | 0.00 | 0.00 | 0.05 | 83 | 999.0 |
| 20260507094524 | 60 | 180 | 14.0 | 21.0 | 0.00 | 0.00 | 0.05 | 83 | 999.0 |
| 20260507094415 | 60 | 113 | 15.0 | 21.0 | 0.00 | 0.00 | 0.05 | 84 | 999.0 |
| 20260507093753 | 61 | 135 | 15.0 | 29.0 | 0.00 | 0.00 | 0.05 | 80 | 998.9 |
| 20260507093040 | 61 | 158 | 15.0 | 25.0 | 0.05 | 0.05 | 0.05 | 83 | 999.3 |
| 20260507092934 | 62 | 180 | 12.0 | 24.0 | 0.05 | 0.05 | 0.05 | 85 | 999.4 |
| 20260507092826 | 62 | 180 | 13.0 | 24.0 | 0.05 | 0.05 | 0.05 | 85 | 999.4 |
| 20260507092723 | 62 | 180 | 13.0 | 24.0 | 0.05 | 0.05 | 0.05 | 85 | 999.5 |
| 20260507092603 | 62 | 158 | 14.0 | 24.0 | 0.05 | 0.05 | 0.05 | 85 | 999.4 |
| 20260507092452 | 62 | 180 | 13.0 | 27.0 | 0.05 | 0.05 | 0.05 | 85 | 999.3 |
| 20260507092342 | 62 | 203 | 15.0 | 27.0 | 0.05 | 0.05 | 0.05 | 86 | 999.4 |
| 20260507092234 | 62 | 180 | 12.0 | 27.0 | 0.05 | 0.05 | 0.05 | 87 | 999.1 |
| 20260507092116 | 62 | 180 | 15.0 | 27.0 | 0.05 | 0.05 | 0.05 | 87 | 999.1 |
| 20260507092007 | 62 | 180 | 15.0 | 27.0 | 0.05 | 0.05 | 0.05 | 88 | 999.1 |
| 20260507091902 | 62 | 180 | 11.0 | 27.0 | 0.05 | 0.05 | 0.05 | 90 | 999.1 |
| 20260507091754 | 62 | 158 | 15.0 | 27.0 | 0.05 | 0.05 | 0.05 | 90 | 999.1 |
| 20260507091526 | 63 | 158 | 14.0 | 20.0 | 0.05 | 0.05 | 0.05 | 90 | 999.1 |
| 20260507091424 | 63 | 135 | 15.0 | 18.0 | 0.05 | 0.05 | 0.05 | 91 | 999.1 |
| 20260507091314 | 63 | 180 | 13.0 | 17.0 | 0.05 | 0.05 | 0.05 | 92 | 999.0 |
| 20260507091158 | 63 | 248 | 11.0 | 16.0 | 0.05 | 0.05 | 0.05 | 93 | 999.2 |
| 20260507091045 | 63 | 158 | 13.0 | 16.0 | 0.05 | 0.05 | 0.05 | 93 | 999.2 |
| 20260507090943 | 63 | 180 | 13.0 | 16.0 | 0.05 | 0.05 | 0.05 | 93 | 999.6 |
| 20260507090833 | 63 | 225 | 11.0 | 16.0 | 0.05 | 0.05 | 0.05 | 93 | 999.7 |
| 20260507090714 | 63 | 180 | 11.0 | 16.0 | 0.05 | 0.05 | 0.05 | 94 | 999.8 |
| 20260507090455 | 63 | 203 | 9.0 | 15.0 | 0.05 | 0.05 | 0.05 | 94 | 999.7 |
| 20260507090347 | 63 | 180 | 8.0 | 15.0 | 0.05 | 0.05 | 0.05 | 94 | 999.9 |
| 20260507090229 | 63 | 203 | 8.0 | 15.0 | 0.05 | 0.05 | 0.05 | 94 | 999.6 |
| 20260507090135 | 63 | 225 | 9.0 | 15.0 | 0.05 | 0.05 | 0.05 | 94 | 999.7 |
| 20260507090012 | 63 | 113 | 9.0 | 15.0 | 0.05 | 0.05 | 0.05 | 94 | 999.6 |
| 20260507085912 | 63 | 180 | 9.0 | 15.0 | 0.05 | 0.05 | 0.05 | 94 | 999.4 |
| 20260507085747 | 63 | 180 | 8.0 | 17.0 | 0.05 | 0.05 | 0.05 | 94 | 999.4 |
| 20260507085638 | 63 | 180 | 12.0 | 17.0 | 0.05 | 0.05 | 0.05 | 94 | 999.2 |
| 20260507085534 | 63 | 203 | 9.0 | 17.0 | 0.05 | 0.05 | 0.05 | 95 | 999.0 |
| 20260507085424 | 63 | 203 | 9.0 | 17.0 | 0.05 | 0.05 | 0.05 | 95 | 999.0 |
| 20260507085307 | 63 | 158 | 8.0 | 17.0 | 0.05 | 0.05 | 0.05 | 95 | 998.9 |
| 20260507085203 | 63 | 158 | 8.0 | 17.0 | 0.05 | 0.05 | 0.05 | 94 | 998.7 |
| 20260507085103 | 63 | 180 | 7.0 | 17.0 | 0.05 | 0.05 | 0.05 | 94 | 998.8 |
| 20260507084940 | 63 | 180 | 8.0 | 17.0 | 0.05 | 0.05 | 0.05 | 94 | 999.1 |
| 20260507084822 | 63 | 180 | 11.0 | 17.0 | 0.04 | 0.04 | 0.05 | 94 | 999.0 |
| 20260507084713 | 63 | 180 | 8.0 | 11.0 | 0.04 | 0.04 | 0.04 | 94 | 999.2 |
| 20260507084610 | 63 | 203 | 7.0 | 11.0 | 0.04 | 0.04 | 0.04 | 94 | 999.2 |
| 20260507084459 | 63 | 203 | 7.0 | 11.0 | 0.02 | 0.02 | 0.04 | 94 | 999.3 |
| 20260507084341 | 63 | 180 | 8.0 | 11.0 | 0.02 | 0.02 | 0.02 | 93 | 999.3 |
| 20260507084239 | 63 | 158 | 8.0 | 13.0 | 0.01 | 0.01 | 0.01 | 93 | 999.6 |
| 20260507084128 | 63 | 180 | 6.0 | 15.0 | 0.00 | 0.00 | 0.01 | 93 | 999.6 |
| 20260507083859 | 63 | 180 | 7.0 | 15.0 | 0.00 | 0.00 | 0.00 | 92 | 1000.0 |
| 20260507083751 | 63 | 203 | 8.0 | 16.0 | 0.00 | 0.00 | 0.00 | 93 | 1000.5 |
| 20260507083641 | 63 | 203 | 8.0 | 16.0 | 0.00 | 0.00 | 0.00 | 92 | 1000.4 |
| 20260507083539 | 63 | 203 | 8.0 | 16.0 | 0.00 | 0.00 | 0.00 | 92 | 1000.5 |
| 20260507083421 | 63 | 203 | 8.0 | 16.0 | 0.00 | 0.00 | 0.00 | 92 | 999.8 |
| 20260507083311 | 63 | 180 | 9.0 | 16.0 | 0.00 | 0.00 | 0.00 | 92 | 999.6 |
| 20260507083203 | 63 | 203 | 9.0 | 16.0 | 0.00 | 0.00 | 0.00 | 92 | 999.0 |
| 20260507083053 | 63 | 180 | 11.0 | 16.0 | 0.00 | 0.00 | 0.00 | 92 | 999.0 |
| 20260507082935 | 63 | 180 | 10.0 | 16.0 | 0.00 | 0.00 | 0.00 | 92 | 998.7 |
| 20260507082827 | 63 | 203 | 11.0 | 16.0 | 0.00 | 0.00 | 0.00 | 92 | 998.9 |
| 20260507082724 | 63 | 203 | 11.0 | 15.0 | 0.00 | 0.00 | 0.00 | 92 | 998.9 |
| 20260507082613 | 63 | 180 | 11.0 | 17.0 | 0.00 | 0.00 | 0.00 | 92 | 998.5 |
| 20260507082505 | 63 | 158 | 6.0 | 17.0 | 0.00 | 0.00 | 0.00 | 92 | 998.2 |
| 20260507082344 | 63 | 180 | 8.0 | 17.0 | 0.00 | 0.00 | 0.00 | 92 | 998.4 |
| 20260507082244 | 63 | 113 | 10.0 | 17.0 | 0.00 | 0.00 | 0.00 | 92 | 998.4 |
| 20260507082134 | 63 | 180 | 10.0 | 17.0 | 0.00 | 0.00 | 0.00 | 92 | 998.5 |
| 20260507082010 | 63 | 180 | 9.0 | 17.0 | 0.00 | 0.00 | 0.00 | 92 | 998.6 |
| 20260507081905 | 63 | 180 | 10.0 | 17.0 | 0.00 | 0.00 | 0.00 | 92 | 998.7 |
| 20260507081757 | 63 | 180 | 11.0 | 17.0 | 0.00 | 0.00 | 0.00 | 92 | 998.6 |
| 20260507081649 | 63 | 180 | 8.0 | 17.0 | 0.00 | 0.00 | 0.00 | 92 | 998.7 |
| 20260507081612 | 63 | 203 | 8.0 | 14.0 | 0.00 | 0.00 | 0.00 | 92 | 998.6 |
| 20260507081535 | 63 | 225 | 10.0 | 14.0 | 0.00 | 0.00 | 0.00 | 92 | 998.3 |
| 20260507081314 | 63 | 180 | 8.0 | 14.0 | 0.00 | 0.00 | 0.00 | 92 | 998.3 |
| 20260507081205 | 63 | 203 | 7.0 | 15.0 | 0.00 | 0.00 | 0.00 | 92 | 998.1 |
| 20260507081103 | 63 | 158 | 7.0 | 15.0 | 0.00 | 0.00 | 0.00 | 92 | 998.2 |
| 20260507081035 | 63 | 180 | 8.0 | 15.0 | 0.00 | 0.00 | 0.00 | 92 | 998.2 |
| 20260507080833 | 63 | 180 | 8.0 | 15.0 | 0.00 | 0.00 | 0.00 | 92 | 998.2 |
| 20260507080731 | 63 | 203 | 11.0 | 15.0 | 0.00 | 0.00 | 0.00 | 92 | 998.0 |
| 20260507080611 | 63 | 158 | 9.0 | 15.0 | 0.00 | 0.00 | 0.00 | 92 | 997.9 |
| 20260507080501 | 63 | 158 | 9.0 | 15.0 | 0.00 | 0.00 | 0.00 | 92 | 998.1 |
| 20260507080356 | 64 | 203 | 6.0 | 15.0 | 0.00 | 0.00 | 0.00 | 92 | 998.0 |
| 20260507080245 | 64 | 203 | 8.0 | 15.0 | 0.00 | 0.00 | 0.00 | 92 | 997.9 |
| 20260507080128 | 64 | 203 | 8.0 | 15.0 | 0.00 | 0.00 | 0.00 | 92 | 997.9 |
| 20260507080043 | 64 | 203 | 8.0 | 15.0 | 0.00 | 0.00 | 0.00 | 92 | 997.9 |
| 20260507080017 | 64 | 158 | 7.0 | 15.0 | 0.00 | 0.00 | 0.00 | 92 | 997.7 |
| 20260507075758 | 64 | 113 | 10.0 | 15.0 | 0.00 | 0.00 | 0.00 | 92 | 997.8 |
| 20260507075640 | 64 | 158 | 9.0 | 15.0 | 0.00 | 0.00 | 0.00 | 92 | 997.9 |
| 20260507075539 | 64 | 180 | 8.0 | 15.0 | 0.00 | 0.00 | 0.00 | 91 | 997.9 |
| 20260507075504 | 64 | 158 | 8.0 | 15.0 | 0.00 | 0.00 | 0.00 | 91 | 997.9 |
| 20260507075318 | 64 | 180 | 9.0 | 15.0 | 0.00 | 0.00 | 0.00 | 91 | 997.9 |
| 20260507075158 | 64 | 135 | 8.0 | 14.0 | 0.00 | 0.00 | 0.00 | 91 | 997.8 |
| 20260507075057 | 64 | 203 | 5.0 | 14.0 | 0.00 | 0.00 | 0.00 | 91 | 997.8 |
| 20260507074946 | 64 | 180 | 6.0 | 14.0 | 0.00 | 0.00 | 0.00 | 91 | 997.9 |
| 20260507074717 | 64 | 113 | 6.0 | 14.0 | 0.00 | 0.00 | 0.00 | 91 | 997.7 |
| 20260507074610 | 64 | 158 | 8.0 | 14.0 | 0.00 | 0.00 | 0.00 | 91 | 997.7 |
| 20260507074502 | 64 | 135 | 8.0 | 14.0 | 0.00 | 0.00 | 0.00 | 91 | 997.8 |
| 20260507074354 | 64 | 158 | 7.0 | 14.0 | 0.00 | 0.00 | 0.00 | 90 | 997.7 |
| 20260507074235 | 64 | 203 | 9.0 | 14.0 | 0.00 | 0.00 | 0.00 | 90 | 997.7 |
| 20260507074125 | 64 | 180 | 5.0 | 14.0 | 0.00 | 0.00 | 0.00 | 91 | 997.8 |
| 20260507074034 | 64 | 180 | 7.0 | 14.0 | 0.00 | 0.00 | 0.00 | 91 | 997.7 |
| 20260507073915 | 64 | 180 | 6.0 | 13.0 | 0.00 | 0.00 | 0.00 | 91 | 997.9 |
| 20260507073757 | 64 | 135 | 6.0 | 13.0 | 0.00 | 0.00 | 0.00 | 91 | 997.9 |
| 20260507073646 | 64 | 158 | 7.0 | 13.0 | 0.00 | 0.00 | 0.00 | 90 | 997.9 |
| 20260507073537 | 64 | 158 | 7.0 | 13.0 | 0.00 | 0.00 | 0.00 | 90 | 998.0 |
| 20260507073429 | 64 | 158 | 6.0 | 11.0 | 0.00 | 0.00 | 0.00 | 90 | 998.1 |
| 20260507073325 | 64 | 135 | 6.0 | 11.0 | 0.00 | 0.00 | 0.00 | 90 | 998.2 |
| 20260507073204 | 64 | 203 | 7.0 | 11.0 | 0.00 | 0.00 | 0.00 | 90 | 998.2 |
| 20260507073102 | 64 | 203 | 7.0 | 11.0 | 0.00 | 0.00 | 0.00 | 90 | 998.4 |
| 20260507072952 | 65 | 158 | 5.0 | 11.0 | 0.00 | 0.00 | 0.00 | 90 | 998.2 |
| 20260507072834 | 65 | 180 | 5.0 | 13.0 | 0.00 | 0.00 | 0.00 | 90 | 998.2 |
| 20260507072724 | 65 | 158 | 7.0 | 14.0 | 0.00 | 0.00 | 0.00 | 90 | 998.2 |
| 20260507072616 | 65 | 135 | 6.0 | 14.0 | 0.00 | 0.00 | 0.00 | 90 | 998.2 |
| 20260507072510 | 65 | 203 | 4.0 | 14.0 | 0.00 | 0.00 | 0.00 | 90 | 998.0 |
| 20260507072346 | 65 | 203 | 4.0 | 14.0 | 0.00 | 0.00 | 0.00 | 90 | 998.1 |
| 20260507072133 | 65 | 180 | 7.0 | 14.0 | 0.00 | 0.00 | 0.00 | 89 | 998.0 |
| 20260507072031 | 65 | 135 | 6.0 | 14.0 | 0.00 | 0.00 | 0.00 | 90 | 998.0 |
| 20260507071904 | 65 | 158 | 8.0 | 14.0 | 0.00 | 0.00 | 0.00 | 89 | 997.9 |
| 20260507071805 | 65 | 135 | 7.0 | 14.0 | 0.00 | 0.00 | 0.00 | 90 | 997.8 |
| 20260507071654 | 65 | 225 | 6.0 | 13.0 | 0.00 | 0.00 | 0.00 | 90 | 997.8 |
| 20260507071543 | 65 | 158 | 8.0 | 13.0 | 0.00 | 0.00 | 0.00 | 90 | 997.9 |
| 20260507071426 | 65 | 180 | 7.0 | 15.0 | 0.00 | 0.00 | 0.00 | 89 | 997.6 |
| 20260507071316 | 65 | 203 | 8.0 | 15.0 | 0.00 | 0.00 | 0.00 | 89 | 997.6 |
| 20260507071213 | 65 | 203 | 8.0 | 15.0 | 0.00 | 0.00 | 0.00 | 89 | 997.6 |
| 20260507071105 | 65 | 158 | 8.0 | 15.0 | 0.00 | 0.00 | 0.00 | 89 | 997.7 |
| 20260507070940 | 65 | 158 | 8.0 | 15.0 | 0.00 | 0.00 | 0.00 | 89 | 997.8 |
| 20260507070839 | 65 | 158 | 9.0 | 15.0 | 0.00 | 0.00 | 0.00 | 89 | 997.7 |
| 20260507070737 | 65 | 180 | 8.0 | 15.0 | 0.00 | 0.00 | 0.00 | 89 | 997.8 |
| 20260507070618 | 65 | 203 | 9.0 | 15.0 | 0.00 | 0.00 | 0.00 | 89 | 997.7 |
| 20260507070501 | 65 | 180 | 9.0 | 15.0 | 0.00 | 0.00 | 0.00 | 89 | 997.9 |
| 20260507070351 | 65 | 135 | 8.0 | 15.0 | 0.00 | 0.00 | 0.00 | 89 | 997.9 |
| 20260507070249 | 65 | 180 | 8.0 | 15.0 | 0.00 | 0.00 | 0.00 | 89 | 997.7 |
| 20260507070139 | 65 | 180 | 8.0 | 15.0 | 0.00 | 0.00 | 0.00 | 89 | 997.7 |
| 20260507070020 | 65 | 180 | 9.0 | 15.0 | 0.00 | 0.00 | 0.00 | 89 | 997.7 |
| 20260507065916 | 65 | 180 | 9.0 | 15.0 | 0.00 | 0.00 | 0.00 | 89 | 997.6 |
| 20260507065813 | 65 | 180 | 7.0 | 14.0 | 0.00 | 0.00 | 0.00 | 90 | 997.4 |
| 20260507065553 | 65 | 203 | 8.0 | 14.0 | 0.00 | 0.00 | 0.00 | 89 | 997.5 |
| 20260507065432 | 65 | 180 | 8.0 | 13.0 | 0.00 | 0.00 | 0.00 | 89 | 997.4 |
| 20260507065322 | 66 | 180 | 8.0 | 13.0 | 0.00 | 0.00 | 0.00 | 89 | 997.4 |
| 20260507065213 | 66 | 158 | 8.0 | 17.0 | 0.00 | 0.00 | 0.00 | 89 | 997.7 |
| 20260507065053 | 66 | 180 | 9.0 | 17.0 | 0.00 | 0.00 | 0.00 | 89 | 997.6 |
| 20260507064945 | 66 | 203 | 8.0 | 17.0 | 0.00 | 0.00 | 0.00 | 88 | 997.7 |
| 20260507064837 | 66 | 203 | 8.0 | 17.0 | 0.00 | 0.00 | 0.00 | 88 | 997.6 |
| 20260507064729 | 66 | 180 | 9.0 | 17.0 | 0.00 | 0.00 | 0.00 | 88 | 997.9 |
| 20260507064616 | 66 | 203 | 9.0 | 17.0 | 0.00 | 0.00 | 0.00 | 89 | 997.6 |
| 20260507064506 | 66 | 180 | 10.0 | 17.0 | 0.00 | 0.00 | 0.00 | 89 | 997.7 |
| 20260507064356 | 66 | 203 | 11.0 | 17.0 | 0.00 | 0.00 | 0.00 | 89 | 997.8 |
| 20260507064254 | 66 | 180 | 10.0 | 17.0 | 0.00 | 0.00 | 0.00 | 89 | 997.6 |
| 20260507064136 | 66 | 203 | 11.0 | 16.0 | 0.00 | 0.00 | 0.00 | 88 | 997.6 |
| 20260507064026 | 66 | 203 | 11.0 | 16.0 | 0.00 | 0.00 | 0.00 | 88 | 997.6 |
| 20260507063913 | 66 | 158 | 8.0 | 16.0 | 0.00 | 0.00 | 0.00 | 88 | 997.7 |
| 20260507063805 | 66 | 203 | 8.0 | 16.0 | 0.00 | 0.00 | 0.00 | 87 | 997.7 |
| 20260507063648 | 66 | 135 | 9.0 | 14.0 | 0.00 | 0.00 | 0.00 | 88 | 997.7 |
| 20260507063538 | 66 | 180 | 6.0 | 11.0 | 0.00 | 0.00 | 0.00 | 89 | 997.7 |
| 20260507063436 | 66 | 203 | 4.0 | 11.0 | 0.00 | 0.00 | 0.00 | 89 | 997.6 |
| 20260507063331 | 66 | 158 | 3.0 | 13.0 | 0.00 | 0.00 | 0.00 | 88 | 997.9 |
| 20260507063244 | 66 | 113 | 7.0 | 13.0 | 0.00 | 0.00 | 0.00 | 88 | 997.6 |
| 20260507063208 | 66 | 203 | 8.0 | 13.0 | 0.00 | 0.00 | 0.00 | 88 | 997.7 |
| 20260507062950 | 66 | 180 | 7.0 | 13.0 | 0.00 | 0.00 | 0.00 | 88 | 997.7 |
| 20260507062848 | 66 | 180 | 7.0 | 13.0 | 0.00 | 0.00 | 0.00 | 88 | 997.7 |
| 20260507062724 | 66 | 158 | 4.0 | 13.0 | 0.00 | 0.00 | 0.00 | 88 | 997.7 |
| 20260507062621 | 67 | 135 | 4.0 | 13.0 | 0.00 | 0.00 | 0.00 | 88 | 997.8 |
| 20260507062509 | 67 | 158 | 7.0 | 13.0 | 0.00 | 0.00 | 0.00 | 88 | 997.8 |
| 20260507062401 | 67 | 180 | 8.0 | 13.0 | 0.00 | 0.00 | 0.00 | 88 | 997.9 |
| 20260507062243 | 67 | 180 | 8.0 | 13.0 | 0.00 | 0.00 | 0.00 | 88 | 997.8 |
| 20260507062135 | 67 | 203 | 7.0 | 13.0 | 0.00 | 0.00 | 0.00 | 87 | 997.7 |
| 20260507062030 | 67 | 180 | 7.0 | 13.0 | 0.00 | 0.00 | 0.00 | 87 | 997.8 |
| 20260507061920 | 67 | 203 | 5.0 | 13.0 | 0.00 | 0.00 | 0.00 | 87 | 997.8 |
| 20260507061800 | 67 | 135 | 7.0 | 13.0 | 0.00 | 0.00 | 0.00 | 86 | 997.9 |
| 20260507061651 | 67 | 180 | 8.0 | 13.0 | 0.00 | 0.00 | 0.00 | 86 | 998.3 |
| 20260507061547 | 67 | 180 | 6.0 | 9.0 | 0.00 | 0.00 | 0.00 | 88 | 998.3 |
| 20260507061436 | 67 | 180 | 6.0 | 9.0 | 0.00 | 0.00 | 0.00 | 88 | 998.3 |
| 20260507061318 | 66 | 203 | 6.0 | 9.0 | 0.00 | 0.00 | 0.00 | 90 | 998.4 |
| 20260507061208 | 66 | 203 | 4.0 | 9.0 | 0.00 | 0.00 | 0.00 | 91 | 998.0 |
| 20260507061107 | 67 | 180 | 4.0 | 9.0 | 0.00 | 0.00 | 0.00 | 92 | 998.0 |
| 20260507061000 | 67 | 203 | 4.0 | 9.0 | 0.00 | 0.00 | 0.00 | 93 | 997.9 |
| 20260507060836 | 67 | 180 | 4.0 | 9.0 | 0.00 | 0.00 | 0.00 | 93 | 998.1 |
| 20260507060732 | 66 | 225 | 6.0 | 9.0 | 0.00 | 0.00 | 0.00 | 93 | 998.1 |
| 20260507060624 | 66 | 203 | 6.0 | 7.0 | 0.00 | 0.00 | 0.00 | 93 | 998.0 |
| 20260507055920 | 66 | 180 | 2.0 | 4.0 | 0.00 | 0.04 | 0.00 | 93 | 997.1 |
| 20260507055811 | 66 | 203 | 2.0 | 4.0 | 0.00 | 0.04 | 0.00 | 93 | 996.9 |
| 20260507055703 | 66 | 180 | 2.0 | 4.0 | 0.00 | 0.04 | 0.00 | 93 | 997.0 |
| 20260507055544 | 66 | 90 | 2.0 | 4.0 | 0.00 | 0.04 | 0.00 | 93 | 996.9 |
| 20260507055440 | 66 | 180 | 2.0 | 4.0 | 0.00 | 0.04 | 0.00 | 93 | 997.0 |
| 20260507055329 | 66 | 158 | 2.0 | 4.0 | 0.00 | 0.04 | 0.00 | 93 | 997.1 |
| 20260507055211 | 66 | 113 | 2.0 | 4.0 | 0.00 | 0.04 | 0.00 | 93 | 997.1 |
| 20260507055109 | 67 | 113 | 2.0 | 4.0 | 0.00 | 0.04 | 0.00 | 93 | 997.3 |
| 20260507054957 | 67 | 113 | 2.0 | 4.0 | 0.00 | 0.04 | 0.00 | 93 | 997.1 |
| 20260507054848 | 67 | 68 | 2.0 | 4.0 | 0.00 | 0.04 | 0.00 | 93 | 997.0 |
| 20260507054738 | 67 | 68 | 2.0 | 4.0 | 0.00 | 0.04 | 0.00 | 93 | 997.1 |
| 20260507054512 | 67 | 113 | 2.0 | 4.0 | 0.00 | 0.04 | 0.00 | 92 | 997.0 |
| 20260507054410 | 67 | 113 | 2.0 | 4.0 | 0.00 | 0.04 | 0.00 | 92 | 996.9 |
| 20260507054245 | 67 | 113 | 2.0 | 4.0 | 0.00 | 0.04 | 0.00 | 92 | 997.1 |
| 20260507054137 | 67 | 45 | 2.0 | 7.0 | 0.00 | 0.04 | 0.00 | 92 | 997.1 |
| 20260507054034 | 67 | 68 | 2.0 | 7.0 | 0.00 | 0.04 | 0.00 | 92 | 997.1 |
| 20260507053923 | 67 | 68 | 2.0 | 7.0 | 0.00 | 0.04 | 0.00 | 92 | 997.0 |
| 20260507053805 | 67 | 113 | 2.0 | 7.0 | 0.00 | 0.04 | 0.00 | 92 | 997.2 |
| 20260507053657 | 67 | 158 | 3.0 | 7.0 | 0.00 | 0.04 | 0.00 | 92 | 997.0 |
| 20260507053554 | 67 | 203 | 2.0 | 7.0 | 0.00 | 0.04 | 0.00 | 91 | 997.1 |
| 20260507053445 | 67 | 225 | 2.0 | 7.0 | 0.00 | 0.04 | 0.00 | 91 | 997.0 |
| 20260507053328 | 67 | 225 | 2.0 | 7.0 | 0.00 | 0.04 | 0.00 | 91 | 997.2 |
| 20260507053217 | 67 | 158 | 3.0 | 7.0 | 0.00 | 0.04 | 0.00 | 91 | 997.3 |
| 20260507053117 | 67 | 135 | 2.0 | 4.0 | 0.00 | 0.04 | 0.00 | 91 | 997.3 |
| 20260507053000 | 67 | 113 | 2.0 | 4.0 | 0.00 | 0.04 | 0.00 | 91 | 997.5 |
| 20260507052842 | 67 | 158 | 2.0 | 6.0 | 0.00 | 0.04 | 0.00 | 91 | 997.3 |
| 20260507052734 | 67 | 158 | 2.0 | 6.0 | 0.00 | 0.04 | 0.00 | 91 | 997.6 |
| 20260507052626 | 67 | 113 | 3.0 | 8.0 | 0.00 | 0.04 | 0.00 | 91 | 997.4 |
| 20260507052516 | 66 | 68 | 2.0 | 8.0 | 0.00 | 0.04 | 0.00 | 91 | 997.5 |
| 20260507052402 | 66 | 68 | 3.0 | 8.0 | 0.00 | 0.04 | 0.00 | 91 | 997.4 |
| 20260507052252 | 66 | 90 | 2.0 | 8.0 | 0.00 | 0.04 | 0.00 | 91 | 997.4 |
| 20260507052150 | 67 | 90 | 3.0 | 8.0 | 0.00 | 0.04 | 0.00 | 91 | 997.5 |
| 20260507051921 | 67 | 68 | 3.0 | 8.0 | 0.00 | 0.04 | 0.00 | 90 | 997.7 |
| 20260507051811 | 67 | 68 | 4.0 | 8.0 | 0.00 | 0.04 | 0.00 | 90 | 997.8 |
| 20260507051700 | 68 | 68 | 6.0 | 8.0 | 0.00 | 0.04 | 0.00 | 90 | 997.8 |
| 20260507051600 | 68 | 23 | 5.0 | 8.0 | 0.00 | 0.04 | 0.00 | 89 | 997.7 |
| 20260507051439 | 68 | 68 | 3.0 | 7.0 | 0.00 | 0.04 | 0.00 | 89 | 997.7 |
| 20260507051331 | 68 | 90 | 3.0 | 7.0 | 0.00 | 0.04 | 0.00 | 89 | 997.7 |
| 20260507051220 | 69 | 135 | 2.0 | 7.0 | 0.00 | 0.04 | 0.00 | 89 | 997.4 |
| 20260507051110 | 69 | 135 | 3.0 | 7.0 | 0.00 | 0.04 | 0.00 | 88 | 997.4 |
| 20260507051008 | 69 | 158 | 4.0 | 7.0 | 0.00 | 0.04 | 0.00 | 88 | 997.2 |
| 20260507050845 | 69 | 158 | 4.0 | 8.0 | 0.00 | 0.04 | 0.00 | 88 | 996.8 |
| 20260507050737 | 69 | 135 | 4.0 | 8.0 | 0.00 | 0.04 | 0.00 | 88 | 997.0 |
| 20260507050635 | 68 | 158 | 5.0 | 8.0 | 0.00 | 0.04 | 0.00 | 89 | 996.7 |
| 20260507050517 | 68 | 135 | 4.0 | 8.0 | 0.00 | 0.04 | 0.00 | 89 | 996.7 |
| 20260507050406 | 68 | 158 | 4.0 | 8.0 | 0.00 | 0.04 | 0.00 | 89 | 996.7 |
| 20260507050258 | 68 | 158 | 4.0 | 8.0 | 0.00 | 0.04 | 0.00 | 90 | 996.7 |
| 20260507050150 | 68 | 180 | 3.0 | 8.0 | 0.00 | 0.04 | 0.00 | 90 | 996.9 |
| 20260507050032 | 68 | 203 | 4.0 | 8.0 | 0.00 | 0.04 | 0.00 | 91 | 996.7 |
| 20260507045925 | 68 | 158 | 4.0 | 8.0 | 0.00 | 0.04 | 0.00 | 91 | 996.6 |
| 20260507045816 | 68 | 203 | 4.0 | 8.0 | 0.00 | 0.04 | 0.00 | 92 | 996.8 |
| 20260507045706 | 68 | 203 | 4.0 | 8.0 | 0.00 | 0.04 | 0.00 | 91 | 996.5 |
| 20260507045546 | 68 | 225 | 4.0 | 8.0 | 0.00 | 0.04 | 0.00 | 91 | 996.4 |
| 20260507045335 | 68 | 180 | 5.0 | 8.0 | 0.00 | 0.04 | 0.00 | 91 | 996.6 |
| 20260507045227 | 68 | 203 | 5.0 | 8.0 | 0.00 | 0.04 | 0.00 | 91 | 996.6 |
| 20260507045108 | 68 | 158 | 6.0 | 8.0 | 0.00 | 0.04 | 0.00 | 91 | 996.4 |
| 20260507045000 | 68 | 180 | 4.0 | 8.0 | 0.00 | 0.04 | 0.00 | 91 | 996.6 |
| 20260507044856 | 68 | 158 | 4.0 | 8.0 | 0.00 | 0.04 | 0.00 | 91 | 996.3 |
| 20260507044748 | 68 | 158 | 4.0 | 8.0 | 0.00 | 0.04 | 0.00 | 91 | 996.2 |
| 20260507044629 | 67 | 180 | 4.0 | 13.0 | 0.00 | 0.04 | 0.00 | 91 | 995.9 |
| 20260507044520 | 67 | 158 | 4.0 | 13.0 | 0.00 | 0.04 | 0.00 | 91 | 996.1 |
| 20260507044414 | 67 | 158 | 4.0 | 13.0 | 0.00 | 0.04 | 0.00 | 91 | 996.1 |
| 20260507044306 | 67 | 225 | 3.0 | 13.0 | 0.00 | 0.04 | 0.00 | 91 | 996.2 |
| 20260507044145 | 67 | 135 | 3.0 | 14.0 | 0.00 | 0.04 | 0.00 | 91 | 996.5 |
| 20260507044037 | 67 | 180 | 4.0 | 15.0 | 0.00 | 0.04 | 0.00 | 91 | 996.4 |
| 20260507043935 | 67 | 180 | 4.0 | 16.0 | 0.00 | 0.04 | 0.00 | 91 | 996.2 |
| 20260507043817 | 67 | 158 | 5.0 | 16.0 | 0.00 | 0.04 | 0.00 | 91 | 996.2 |
| 20260507043659 | 67 | 203 | 8.0 | 16.0 | 0.00 | 0.04 | 0.00 | 91 | 996.3 |
| 20260507043555 | 67 | 180 | 10.0 | 17.0 | 0.00 | 0.04 | 0.00 | 91 | 996.5 |
| 20260507043447 | 67 | 180 | 8.0 | 17.0 | 0.00 | 0.04 | 0.00 | 91 | 996.4 |
| 20260507043341 | 67 | 203 | 8.0 | 17.0 | 0.00 | 0.04 | 0.00 | 91 | 996.3 |
| 20260507043217 | 67 | 158 | 11.0 | 17.0 | 0.00 | 0.04 | 0.00 | 91 | 996.1 |
| 20260507043108 | 67 | 180 | 12.0 | 17.0 | 0.00 | 0.04 | 0.00 | 91 | 996.1 |
| 20260507043033 | 67 | 180 | 12.0 | 17.0 | 0.00 | 0.04 | 0.00 | 91 | 996.2 |
| 20260507043002 | 67 | 180 | 10.0 | 17.0 | 0.00 | 0.04 | 0.00 | 91 | 996.1 |
| 20260507042736 | 67 | 180 | 11.0 | 17.0 | 0.00 | 0.04 | 0.00 | 91 | 995.8 |
| 20260507042633 | 67 | 203 | 13.0 | 18.0 | 0.00 | 0.04 | 0.00 | 90 | 995.8 |
| 20260507042531 | 67 | 180 | 11.0 | 18.0 | 0.00 | 0.04 | 0.00 | 90 | 996.0 |
| 20260507042417 | 67 | 180 | 11.0 | 20.0 | 0.00 | 0.04 | 0.00 | 90 | 995.9 |
| 20260507042257 | 67 | 203 | 12.0 | 20.0 | 0.00 | 0.04 | 0.00 | 90 | 995.8 |
| 20260507042147 | 67 | 203 | 11.0 | 21.0 | 0.00 | 0.04 | 0.00 | 90 | 995.7 |
| 20260507042045 | 67 | 180 | 12.0 | 21.0 | 0.00 | 0.04 | 0.00 | 90 | 995.9 |
| 20260507041935 | 67 | 203 | 15.0 | 21.0 | 0.00 | 0.04 | 0.00 | 89 | 995.7 |
| 20260507041821 | 67 | 203 | 15.0 | 21.0 | 0.00 | 0.04 | 0.00 | 89 | 995.9 |
| 20260507041709 | 67 | 203 | 14.0 | 21.0 | 0.00 | 0.04 | 0.00 | 89 | 995.5 |
| 20260507041601 | 67 | 203 | 14.0 | 21.0 | 0.00 | 0.04 | 0.00 | 89 | 995.5 |
| 20260507041453 | 67 | 203 | 15.0 | 21.0 | 0.00 | 0.04 | 0.00 | 88 | 995.7 |
| 20260507041226 | 67 | 203 | 12.0 | 21.0 | 0.00 | 0.04 | 0.00 | 88 | 996.0 |
| 20260507041121 | 67 | 203 | 13.0 | 20.0 | 0.00 | 0.04 | 0.00 | 88 | 996.0 |
| 20260507041011 | 67 | 203 | 12.0 | 20.0 | 0.00 | 0.04 | 0.00 | 87 | 996.0 |
| 20260507040927 | 67 | 180 | 14.0 | 20.0 | 0.00 | 0.04 | 0.00 | 87 | 995.9 |
| 20260507040739 | 67 | 203 | 11.0 | 20.0 | 0.00 | 0.04 | 0.00 | 87 | 995.9 |
| 20260507040639 | 67 | 225 | 11.0 | 21.0 | 0.00 | 0.04 | 0.00 | 87 | 995.5 |
| 20260507040523 | 67 | 203 | 11.0 | 21.0 | 0.00 | 0.04 | 0.00 | 86 | 995.6 |
| 20260507040406 | 67 | 180 | 11.0 | 23.0 | 0.00 | 0.04 | 0.00 | 86 | 995.4 |
| 20260507040151 | 68 | 180 | 15.0 | 24.0 | 0.00 | 0.04 | 0.00 | 84 | 995.9 |
| 20260507040043 | 68 | 203 | 15.0 | 24.0 | 0.00 | 0.04 | 0.00 | 82 | 995.9 |
| 20260507035951 | 68 | 203 | 13.0 | 24.0 | 0.00 | 0.04 | 0.00 | 83 | 995.9 |
| 20260507035914 | 69 | 180 | 11.0 | 24.0 | 0.00 | 0.04 | 0.00 | 83 | 995.8 |
| 20260507035710 | 69 | 203 | 14.0 | 25.0 | 0.00 | 0.04 | 0.00 | 82 | 995.8 |
| 20260507035602 | 69 | 225 | 15.0 | 25.0 | 0.00 | 0.04 | 0.00 | 84 | 995.7 |
| 20260507035446 | 69 | 203 | 13.0 | 27.0 | 0.00 | 0.04 | 0.00 | 85 | 995.7 |
| 20260507035338 | 69 | 203 | 18.0 | 27.0 | 0.00 | 0.04 | 0.00 | 84 | 995.8 |
| 20260507035227 | 69 | 203 | 18.0 | 27.0 | 0.00 | 0.04 | 0.00 | 83 | 995.8 |
| 20260507035119 | 69 | 180 | 17.0 | 27.0 | 0.00 | 0.04 | 0.00 | 83 | 995.6 |
| 20260507035000 | 69 | 203 | 16.0 | 27.0 | 0.00 | 0.04 | 0.00 | 83 | 995.5 |
| 20260507034858 | 70 | 180 | 15.0 | 27.0 | 0.00 | 0.04 | 0.00 | 83 | 995.6 |
| 20260507034804 | 70 | 203 | 17.0 | 27.0 | 0.00 | 0.04 | 0.00 | 83 | 995.9 |
| 20260507034639 | 70 | 203 | 15.0 | 29.0 | 0.00 | 0.04 | 0.00 | 82 | 996.1 |
| 20260507034521 | 70 | 203 | 19.0 | 29.0 | 0.01 | 0.04 | 0.00 | 82 | 996.1 |
| 20260507034410 | 71 | 225 | 20.0 | 29.0 | 0.01 | 0.04 | 0.00 | 83 | 995.8 |
| 20260507034302 | 71 | 225 | 18.0 | 29.0 | 0.02 | 0.04 | 0.00 | 84 | 995.9 |
| 20260507034200 | 71 | 203 | 23.0 | 29.0 | 0.04 | 0.04 | 0.00 | 84 | 995.8 |
| 20260507034042 | 72 | 225 | 19.0 | 30.0 | 0.04 | 0.04 | 0.00 | 85 | 996.0 |
| 20260507033931 | 72 | 203 | 20.0 | 30.0 | 0.04 | 0.04 | 0.00 | 86 | 995.9 |
| 20260507033823 | 72 | 203 | 20.0 | 30.0 | 0.04 | 0.04 | 0.00 | 87 | 995.9 |
| 20260507033553 | 73 | 225 | 21.0 | 30.0 | 0.04 | 0.04 | 0.00 | 87 | 995.7 |
| 20260507033445 | 73 | 203 | 18.0 | 30.0 | 0.04 | 0.04 | 0.00 | 87 | 995.6 |
| 20260507033345 | 73 | 225 | 21.0 | 30.0 | 0.04 | 0.04 | 0.00 | 87 | 995.6 |
| 20260507033253 | 72 | 203 | 20.0 | 30.0 | 0.04 | 0.04 | 0.00 | 87 | 995.6 |
| 20260507033117 | 72 | 203 | 19.0 | 30.0 | 0.04 | 0.04 | 0.00 | 88 | 995.6 |
| 20260507033009 | 72 | 203 | 13.0 | 24.0 | 0.04 | 0.04 | 0.00 | 91 | 995.7 |
| 20260507032859 | 72 | 225 | 6.0 | 11.0 | 0.04 | 0.04 | 0.00 | 92 | 995.2 |
| 20260507032814 | 72 | 225 | 7.0 | 11.0 | 0.04 | 0.04 | 0.00 | 91 | 995.1 |
| 20260507032636 | 72 | 225 | 8.0 | 11.0 | 0.04 | 0.04 | 0.00 | 91 | 994.9 |
| 20260507032528 | 72 | 203 | 8.0 | 11.0 | 0.04 | 0.04 | 0.00 | 91 | 994.8 |
| 20260507032420 | 72 | 225 | 6.0 | 9.0 | 0.04 | 0.04 | 0.00 | 92 | 995.0 |
| 20260507032312 | 72 | 225 | 7.0 | 9.0 | 0.04 | 0.04 | 0.00 | 91 | 995.0 |
| 20260507032201 | 72 | 203 | 7.0 | 9.0 | 0.04 | 0.04 | 0.00 | 91 | 995.1 |
| 20260507032042 | 72 | 203 | 7.0 | 9.0 | 0.04 | 0.04 | 0.00 | 91 | 995.1 |
| 20260507031934 | 72 | 203 | 7.0 | 9.0 | 0.04 | 0.04 | 0.00 | 91 | 995.0 |
| 20260507031826 | 72 | 203 | 6.0 | 8.0 | 0.04 | 0.04 | 0.00 | 91 | 994.9 |
| 20260507031712 | 72 | 203 | 5.0 | 8.0 | 0.04 | 0.04 | 0.00 | 91 | 995.1 |
| 20260507031601 | 72 | 225 | 5.0 | 7.0 | 0.04 | 0.04 | 0.00 | 91 | 994.9 |
| 20260507031450 | 72 | 203 | 4.0 | 7.0 | 0.04 | 0.04 | 0.00 | 91 | 995.0 |
| 20260507031342 | 72 | 203 | 4.0 | 7.0 | 0.04 | 0.04 | 0.00 | 91 | 994.8 |
| 20260507031225 | 72 | 225 | 4.0 | 7.0 | 0.04 | 0.04 | 0.00 | 91 | 994.7 |
| 20260507031011 | 72 | 203 | 3.0 | 7.0 | 0.04 | 0.04 | 0.00 | 92 | 994.6 |
| 20260507030903 | 72 | 203 | 3.0 | 7.0 | 0.04 | 0.04 | 0.00 | 92 | 994.5 |
| 20260507030818 | 71 | 203 | 4.0 | 7.0 | 0.04 | 0.04 | 0.00 | 92 | 994.4 |
| 20260507030646 | 71 | 180 | 3.0 | 7.0 | 0.04 | 0.04 | 0.00 | 93 | 994.2 |
| 20260507030528 | 71 | 203 | 3.0 | 4.0 | 0.04 | 0.04 | 0.00 | 93 | 994.3 |
| 20260507030424 | 71 | 203 | 3.0 | 4.0 | 0.04 | 0.04 | 0.00 | 93 | 994.1 |
| 20260507030304 | 71 | 180 | 4.0 | 4.0 | 0.04 | 0.04 | 0.00 | 92 | 994.1 |
| 20260507030152 | 71 | 180 | 2.0 | 4.0 | 0.04 | 0.04 | 0.00 | 93 | 994.4 |
| 20260507030050 | 72 | 180 | 2.0 | 4.0 | 0.04 | 0.04 | 0.00 | 93 | 994.4 |
| 20260507025942 | 72 | 180 | 2.0 | 4.0 | 0.04 | 0.04 | 0.04 | 92 | 994.7 |
| 20260507025824 | 72 | 203 | 2.0 | 4.0 | 0.04 | 0.04 | 0.04 | 92 | 994.9 |
| 20260507025712 | 72 | 203 | 2.0 | 4.0 | 0.04 | 0.04 | 0.04 | 92 | 995.0 |
| 20260507025612 | 72 | 203 | 2.0 | 4.0 | 0.04 | 0.04 | 0.04 | 92 | 995.0 |
| 20260507025455 | 72 | 203 | 2.0 | 4.0 | 0.04 | 0.04 | 0.04 | 92 | 995.2 |
| 20260507025337 | 72 | 225 | 2.0 | 4.0 | 0.04 | 0.04 | 0.04 | 92 | 995.4 |
| 20260507025229 | 72 | 248 | 2.0 | 4.0 | 0.04 | 0.04 | 0.04 | 92 | 995.5 |
| 20260507025120 | 72 | 225 | 2.0 | 4.0 | 0.04 | 0.04 | 0.04 | 92 | 995.6 |
| 20260507025016 | 72 | 225 | 3.0 | 4.0 | 0.04 | 0.04 | 0.04 | 91 | 995.5 |
| 20260507024859 | 72 | 225 | 2.0 | 4.0 | 0.04 | 0.04 | 0.04 | 91 | 995.6 |
| 20260507024751 | 73 | 203 | 2.0 | 4.0 | 0.04 | 0.04 | 0.04 | 91 | 995.6 |
| 20260507024657 | 73 | 203 | 2.0 | 2.0 | 0.04 | 0.04 | 0.04 | 90 | 995.7 |
| 20260507024416 | 73 | 270 | 0.0 | 0.0 | 0.02 | 0.02 | 0.02 | 89 | 995.8 |
| 20260507024308 | 73 | 0 | 0.0 | 0.0 | 0.01 | 0.01 | 0.02 | 89 | 995.7 |
| 20260507024200 | 73 | 0 | 0.0 | 2.0 | 0.00 | 0.00 | 0.01 | 88 | 995.8 |
| 20260507024052 | 73 | 0 | 0.0 | 2.0 | 0.00 | 0.00 | 0.00 | 88 | 995.4 |
| 20260507023933 | 73 | 45 | 0.0 | 2.0 | 0.00 | 0.00 | 0.00 | 87 | 995.5 |
| 20260507023823 | 74 | 270 | 0.0 | 2.0 | 0.00 | 0.00 | 0.00 | 87 | 995.8 |
| 20260507023719 | 74 | 248 | 0.0 | 2.0 | 0.00 | 0.00 | 0.00 | 87 | 995.7 |
| 20260507023606 | 73 | 203 | 0.0 | 2.0 | 0.00 | 0.00 | 0.00 | 87 | 995.5 |
| 20260507023453 | 73 | 203 | 0.0 | 2.0 | 0.00 | 0.00 | 0.00 | 87 | 995.3 |
| 20260507023345 | 73 | 180 | 0.0 | 2.0 | 0.00 | 0.00 | 0.00 | 87 | 995.2 |
| 20260507023235 | 73 | 180 | 1.0 | 2.0 | 0.00 | 0.00 | 0.00 | 88 | 995.1 |
| 20260507023126 | 73 | 203 | 2.0 | 4.0 | 0.00 | 0.00 | 0.00 | 88 | 995.1 |
| 20260507023018 | 73 | 203 | 2.0 | 4.0 | 0.00 | 0.00 | 0.00 | 88 | 995.3 |
| 20260507022859 | 73 | 180 | 2.0 | 4.0 | 0.00 | 0.00 | 0.00 | 88 | 994.9 |
| 20260507022751 | 73 | 180 | 2.0 | 4.0 | 0.00 | 0.00 | 0.00 | 87 | 994.9 |
| 20260507022642 | 73 | 180 | 2.0 | 4.0 | 0.00 | 0.00 | 0.00 | 88 | 994.9 |
| 20260507022529 | 73 | 180 | 2.0 | 6.0 | 0.00 | 0.00 | 0.00 | 88 | 995.0 |
| 20260507022419 | 73 | 203 | 1.0 | 9.0 | 0.00 | 0.00 | 0.00 | 88 | 995.1 |
| 20260507022310 | 73 | 203 | 2.0 | 9.0 | 0.00 | 0.00 | 0.00 | 88 | 995.4 |
| 20260507022201 | 73 | 225 | 2.0 | 9.0 | 0.00 | 0.00 | 0.00 | 88 | 995.4 |
| 20260507021830 | 72 | 225 | 2.0 | 9.0 | 0.00 | 0.00 | 0.00 | 90 | 996.0 |
| 20260507021720 | 72 | 225 | 2.0 | 9.0 | 0.00 | 0.00 | 0.00 | 90 | 996.2 |
| 20260507021603 | 72 | 203 | 4.0 | 9.0 | 0.00 | 0.00 | 0.00 | 90 | 996.3 |
| 20260507021455 | 72 | 203 | 6.0 | 9.0 | 0.00 | 0.00 | 0.00 | 91 | 996.2 |
| 20260507021352 | 72 | 225 | 1.0 | 4.0 | 0.00 | 0.00 | 0.00 | 91 | 996.1 |
| 20260507021242 | 71 | 22 | 0.0 | 2.0 | 0.00 | 0.00 | 0.00 | 90 | 996.0 |
| 20260507021118 | 71 | 22 | 0.0 | 4.0 | 0.00 | 0.00 | 0.00 | 90 | 996.1 |
| 20260507021009 | 71 | 0 | 0.0 | 4.0 | 0.00 | 0.00 | 0.00 | 90 | 996.0 |
| 20260507020909 | 71 | 0 | 1.0 | 4.0 | 0.00 | 0.00 | 0.00 | 90 | 996.1 |
| 20260507020801 | 71 | 0 | 2.0 | 4.0 | 0.00 | 0.00 | 0.00 | 90 | 996.0 |
| 20260507020641 | 71 | 0 | 1.0 | 4.0 | 0.00 | 0.00 | 0.00 | 90 | 996.0 |
| 20260507020531 | 71 | 0 | 2.0 | 4.0 | 0.00 | 0.00 | 0.00 | 90 | 996.0 |
| 20260507020428 | 71 | 0 | 2.0 | 4.0 | 0.00 | 0.00 | 0.00 | 90 | 996.0 |
| 20260507020315 | 71 | 0 | 2.0 | 4.0 | 0.00 | 0.00 | 0.00 | 90 | 996.1 |
| 20260507020159 | 71 | 0 | 3.0 | 4.0 | 0.00 | 0.00 | 0.00 | 90 | 996.1 |
| 20260507020048 | 72 | 0 | 2.0 | 4.0 | 0.00 | 0.00 | 0.00 | 90 | 996.0 |
| 20260507015940 | 72 | 0 | 0.0 | 0.0 | 0.00 | 0.00 | 0.00 | 89 | 996.0 |
| 20260507015835 | 72 | 0 | 0.0 | 0.0 | 0.00 | 0.00 | 0.00 | 90 | 996.0 |
| 20260507015717 | 72 | 293 | 0.0 | 0.0 | 0.00 | 0.00 | 0.00 | 90 | 996.0 |
| 20260507015604 | 72 | 293 | 0.0 | 0.0 | 0.00 | 0.00 | 0.00 | 90 | 996.0 |
| 20260507015504 | 72 | 293 | 0.0 | 0.0 | 0.00 | 0.00 | 0.00 | 90 | 995.9 |
| 20260507015232 | 72 | 293 | 0.0 | 0.0 | 0.00 | 0.00 | 0.00 | 89 | 996.0 |
| 20260507015129 | 72 | 293 | 0.0 | 0.0 | 0.00 | 0.00 | 0.00 | 89 | 996.2 |
| 20260507015017 | 72 | 293 | 0.0 | 0.0 | 0.00 | 0.00 | 0.00 | 89 | 996.2 |
| 20260507014909 | 72 | 293 | 0.0 | 0.0 | 0.00 | 0.00 | 0.00 | 89 | 996.2 |
| 20260507014754 | 72 | 293 | 0.0 | 0.0 | 0.00 | 0.00 | 0.00 | 89 | 996.1 |
| 20260507014642 | 72 | 293 | 0.0 | 2.0 | 0.00 | 0.00 | 0.00 | 89 | 996.0 |
| 20260507014534 | 72 | 293 | 0.0 | 2.0 | 0.00 | 0.00 | 0.00 | 89 | 996.1 |
| 20260507014425 | 72 | 293 | 0.0 | 2.0 | 0.00 | 0.00 | 0.00 | 89 | 996.1 |
| 20260507014314 | 72 | 293 | 0.0 | 2.0 | 0.00 | 0.00 | 0.00 | 89 | 995.9 |
| 20260507014054 | 72 | 293 | 0.0 | 2.0 | 0.00 | 0.00 | 0.00 | 89 | 995.8 |
| 20260507013946 | 72 | 293 | 0.0 | 2.0 | 0.00 | 0.00 | 0.00 | 89 | 996.1 |
| 20260507013721 | 72 | 293 | 0.0 | 4.0 | 0.00 | 0.00 | 0.00 | 89 | 996.0 |
| 20260507013610 | 72 | 293 | 1.0 | 4.0 | 0.00 | 0.00 | 0.00 | 89 | 996.0 |
| 20260507013502 | 72 | 293 | 1.0 | 4.0 | 0.00 | 0.00 | 0.00 | 89 | 995.9 |
| 20260507013345 | 72 | 293 | 1.0 | 4.0 | 0.00 | 0.00 | 0.00 | 89 | 996.2 |
| 20260507013242 | 72 | 293 | 2.0 | 4.0 | 0.00 | 0.00 | 0.00 | 89 | 996.1 |
| 20260507013132 | 72 | 293 | 2.0 | 4.0 | 0.00 | 0.00 | 0.00 | 89 | 996.1 |
| 20260507013019 | 72 | 293 | 2.0 | 4.0 | 0.00 | 0.00 | 0.00 | 89 | 996.4 |
| 20260507012903 | 72 | 45 | 2.0 | 4.0 | 0.00 | 0.00 | 0.00 | 89 | 996.2 |
| 20260507012646 | 72 | 45 | 3.0 | 4.0 | 0.00 | 0.00 | 0.00 | 89 | 996.2 |
| 20260507012423 | 72 | 293 | 3.0 | 4.0 | 0.00 | 0.00 | 0.00 | 89 | 996.4 |
| 20260507012315 | 72 | 45 | 3.0 | 4.0 | 0.00 | 0.00 | 0.00 | 89 | 996.5 |
| 20260507012203 | 72 | 293 | 2.0 | 4.0 | 0.00 | 0.00 | 0.00 | 89 | 996.4 |
| 20260507012102 | 72 | 293 | 3.0 | 4.0 | 0.00 | 0.00 | 0.00 | 89 | 996.4 |
| 20260507011943 | 72 | 293 | 2.0 | 4.0 | 0.00 | 0.00 | 0.00 | 89 | 996.5 |
| 20260507011834 | 72 | 45 | 2.0 | 4.0 | 0.00 | 0.00 | 0.00 | 90 | 996.5 |
| 20260507011724 | 71 | 293 | 3.0 | 4.0 | 0.00 | 0.00 | 0.00 | 90 | 996.5 |
| 20260507011614 | 71 | 293 | 2.0 | 4.0 | 0.00 | 0.00 | 0.00 | 90 | 996.3 |
| 20260507011457 | 71 | 22 | 2.0 | 4.0 | 0.00 | 0.00 | 0.00 | 90 | 996.5 |
| 20260507011347 | 71 | 22 | 3.0 | 4.0 | 0.00 | 0.00 | 0.00 | 90 | 996.5 |
| 20260507011255 | 71 | 22 | 3.0 | 4.0 | 0.00 | 0.00 | 0.00 | 90 | 996.5 |
| 20260507011137 | 71 | 22 | 3.0 | 4.0 | 0.00 | 0.00 | 0.00 | 89 | 996.4 |
| 20260507011021 | 72 | 22 | 3.0 | 4.0 | 0.00 | 0.00 | 0.00 | 89 | 996.4 |
| 20260507010912 | 72 | 22 | 2.0 | 4.0 | 0.00 | 0.00 | 0.00 | 89 | 996.3 |
| 20260507010818 | 72 | 22 | 3.0 | 4.0 | 0.00 | 0.00 | 0.00 | 89 | 996.2 |
| 20260507010655 | 72 | 22 | 3.0 | 4.0 | 0.00 | 0.00 | 0.00 | 89 | 996.3 |
| 20260507010535 | 72 | 22 | 3.0 | 4.0 | 0.00 | 0.00 | 0.00 | 89 | 996.1 |
| 20260507010443 | 72 | 22 | 2.0 | 4.0 | 0.00 | 0.00 | 0.00 | 88 | 996.1 |
| 20260507010359 | 72 | 22 | 2.0 | 4.0 | 0.00 | 0.00 | 0.00 | 88 | 996.2 |
| 20260507010317 | 73 | 45 | 2.0 | 4.0 | 0.00 | 0.00 | 0.00 | 88 | 996.2 |
| 20260507010050 | 73 | 293 | 2.0 | 4.0 | 0.00 | 0.00 | 0.00 | 88 | 996.4 |
| 20260507005941 | 73 | 293 | 2.0 | 4.0 | 0.00 | 0.00 | 0.00 | 88 | 996.0 |
| 20260507005839 | 73 | 293 | 2.0 | 6.0 | 0.00 | 0.00 | 0.00 | 88 | 996.1 |
| 20260507005735 | 73 | 293 | 2.0 | 6.0 | 0.00 | 0.00 | 0.00 | 88 | 996.2 |
| 20260507005610 | 73 | 293 | 2.0 | 6.0 | 0.00 | 0.00 | 0.00 | 88 | 996.3 |
| 20260507005506 | 73 | 293 | 3.0 | 6.0 | 0.00 | 0.00 | 0.00 | 88 | 996.3 |
| 20260507005355 | 73 | 45 | 3.0 | 6.0 | 0.00 | 0.00 | 0.00 | 88 | 996.3 |
| 20260507005247 | 73 | 45 | 3.0 | 6.0 | 0.00 | 0.00 | 0.00 | 89 | 996.2 |
| 20260507005125 | 73 | 293 | 3.0 | 6.0 | 0.00 | 0.00 | 0.00 | 89 | 996.3 |
| 20260507005017 | 72 | 293 | 4.0 | 6.0 | 0.00 | 0.00 | 0.00 | 89 | 996.4 |
| 20260507004913 | 72 | 293 | 4.0 | 6.0 | 0.00 | 0.00 | 0.00 | 90 | 996.3 |
| 20260507004821 | 71 | 22 | 2.0 | 4.0 | 0.00 | 0.00 | 0.00 | 90 | 996.2 |
| 20260507004752 | 71 | 22 | 2.0 | 4.0 | 0.00 | 0.00 | 0.00 | 90 | 996.3 |
| 20260507004541 | 71 | 22 | 2.0 | 4.0 | 0.00 | 0.00 | 0.00 | 90 | 996.2 |
| 20260507004430 | 72 | 45 | 3.0 | 4.0 | 0.00 | 0.00 | 0.00 | 90 | 996.2 |
| 20260507004321 | 72 | 22 | 2.0 | 4.0 | 0.00 | 0.00 | 0.00 | 90 | 996.6 |
| 20260507004204 | 72 | 22 | 2.0 | 4.0 | 0.00 | 0.00 | 0.00 | 90 | 996.3 |
| 20260507004054 | 72 | 22 | 2.0 | 4.0 | 0.00 | 0.00 | 0.00 | 90 | 996.4 |
| 20260507003950 | 72 | 22 | 2.0 | 4.0 | 0.00 | 0.00 | 0.00 | 89 | 996.5 |
| 20260507003837 | 72 | 22 | 3.0 | 4.0 | 0.00 | 0.00 | 0.00 | 89 | 996.7 |
| 20260507003721 | 72 | 22 | 3.0 | 4.0 | 0.00 | 0.00 | 0.00 | 89 | 996.5 |
| 20260507003507 | 73 | 22 | 2.0 | 4.0 | 0.00 | 0.00 | 0.00 | 88 | 996.9 |
| 20260507003357 | 73 | 22 | 2.0 | 4.0 | 0.00 | 0.00 | 0.00 | 88 | 996.8 |
| 20260507003251 | 73 | 45 | 2.0 | 4.0 | 0.00 | 0.00 | 0.00 | 88 | 996.7 |
| 20260507003231 | 73 | 45 | 2.0 | 4.0 | 0.00 | 0.00 | 0.00 | 88 | 996.8 |
| 20260507003026 | 73 | 45 | 2.0 | 4.0 | 0.00 | 0.00 | 0.00 | 88 | 996.6 |
| 20260507002915 | 73 | 45 | 2.0 | 4.0 | 0.00 | 0.00 | 0.00 | 88 | 996.5 |
| 20260507002755 | 73 | 293 | 2.0 | 4.0 | 0.00 | 0.00 | 0.00 | 87 | 996.5 |
| 20260507002650 | 73 | 293 | 2.0 | 4.0 | 0.00 | 0.00 | 0.00 | 87 | 996.6 |
| 20260507002547 | 73 | 293 | 2.0 | 4.0 | 0.00 | 0.00 | 0.00 | 87 | 996.5 |
| 20260507002438 | 73 | 293 | 2.0 | 4.0 | 0.00 | 0.00 | 0.00 | 87 | 996.7 |
| 20260507002312 | 73 | 293 | 2.0 | 4.0 | 0.00 | 0.00 | 0.00 | 87 | 996.7 |
| 20260507002245 | 73 | 293 | 2.0 | 4.0 | 0.00 | 0.00 | 0.00 | 87 | 996.8 |
| 20260507002209 | 73 | 270 | 2.0 | 4.0 | 0.00 | 0.00 | 0.00 | 87 | 996.8 |
| 20260507001951 | 74 | 270 | 2.0 | 4.0 | 0.00 | 0.00 | 0.00 | 87 | 996.6 |
| 20260507001832 | 74 | 270 | 2.0 | 4.0 | 0.00 | 0.00 | 0.00 | 86 | 996.8 |
| 20260507001729 | 74 | 270 | 2.0 | 4.0 | 0.00 | 0.00 | 0.00 | 86 | 996.8 |
| 20260507001622 | 74 | 293 | 2.0 | 4.0 | 0.00 | 0.00 | 0.00 | 86 | 996.8 |
| 20260507001511 | 74 | 293 | 2.0 | 4.0 | 0.00 | 0.00 | 0.00 | 86 | 996.7 |
| 20260507001403 | 74 | 45 | 2.0 | 4.0 | 0.00 | 0.00 | 0.00 | 86 | 996.7 |
| 20260507001244 | 74 | 45 | 2.0 | 4.0 | 0.00 | 0.00 | 0.00 | 86 | 996.8 |
| 20260507001136 | 74 | 22 | 2.0 | 4.0 | 0.00 | 0.00 | 0.00 | 86 | 996.7 |
| 20260507000913 | 74 | 22 | 3.0 | 4.0 | 0.00 | 0.00 | 0.00 | 86 | 996.7 |
| 20260507000803 | 75 | 0 | 3.0 | 4.0 | 0.00 | 0.00 | 0.00 | 86 | 996.9 |
| 20260507000653 | 75 | 22 | 3.0 | 4.0 | 0.00 | 0.00 | 0.00 | 86 | 996.9 |
| 20260507000552 | 75 | 293 | 2.0 | 4.0 | 0.00 | 0.00 | 0.00 | 86 | 997.0 |
| 20260507000431 | 75 | 22 | 2.0 | 4.0 | 0.00 | 0.00 | 0.00 | 87 | 996.9 |
| 20260507000324 | 75 | 45 | 2.0 | 4.0 | 0.00 | 0.00 | 0.00 | 87 | 996.9 |
| 20260507000223 | 75 | 22 | 1.0 | 2.0 | 0.00 | 0.00 | 0.00 | 87 | 997.1 |
| 20260507000148 | 75 | 45 | 2.0 | 2.0 | 0.00 | 0.00 | 0.00 | 86 | 997.1 |
| 20260506235946 | 75 | 22 | 2.0 | 2.0 | 0.00 | 0.00 | 0.00 | 87 | 996.9 |
| 20260506235837 | 74 | 270 | 2.0 | 2.0 | 0.00 | 0.00 | 0.00 | 87 | 997.0 |
| 20260506235732 | 74 | 270 | 2.0 | 4.0 | 0.00 | 0.00 | 0.00 | 87 | 997.0 |
| 20260506235624 | 74 | 293 | 2.0 | 4.0 | 0.00 | 0.00 | 0.00 | 87 | 997.2 |
| 20260506235511 | 74 | 293 | 2.0 | 4.0 | 0.00 | 0.00 | 0.00 | 87 | 997.1 |
| 20260506235401 | 74 | 293 | 2.0 | 4.0 | 0.00 | 0.00 | 0.00 | 87 | 997.3 |
| 20260506235252 | 74 | 248 | 2.0 | 4.0 | 0.00 | 0.00 | 0.00 | 87 | 997.0 |
| 20260506235143 | 74 | 225 | 2.0 | 4.0 | 0.00 | 0.00 | 0.00 | 87 | 997.0 |
| 20260506235024 | 74 | 248 | 2.0 | 6.0 | 0.00 | 0.00 | 0.00 | 87 | 996.9 |
| 20260506234916 | 74 | 225 | 2.0 | 6.0 | 0.00 | 0.00 | 0.00 | 87 | 997.1 |
| 20260506234806 | 74 | 225 | 3.0 | 6.0 | 0.00 | 0.00 | 0.00 | 88 | 997.2 |
| 20260506234657 | 74 | 225 | 3.0 | 6.0 | 0.00 | 0.00 | 0.00 | 88 | 997.2 |
| 20260506234537 | 74 | 225 | 2.0 | 6.0 | 0.00 | 0.00 | 0.00 | 88 | 997.2 |
| 20260506234325 | 74 | 225 | 3.0 | 6.0 | 0.00 | 0.00 | 0.00 | 88 | 997.0 |
| 20260506234213 | 73 | 203 | 4.0 | 6.0 | 0.00 | 0.00 | 0.00 | 89 | 996.9 |
| 20260506234112 | 73 | 225 | 4.0 | 6.0 | 0.00 | 0.00 | 0.00 | 88 | 997.0 |
| 20260506234037 | 73 | 225 | 5.0 | 6.0 | 0.00 | 0.00 | 0.00 | 89 | 997.0 |
| 20260506233842 | 73 | 225 | 3.0 | 4.0 | 0.00 | 0.00 | 0.00 | 88 | 996.9 |
| 20260506233734 | 73 | 225 | 2.0 | 2.0 | 0.00 | 0.00 | 0.00 | 88 | 997.1 |
| 20260506233618 | 73 | 225 | 2.0 | 2.0 | 0.00 | 0.00 | 0.00 | 88 | 996.7 |
| 20260506233509 | 73 | 203 | 2.0 | 2.0 | 0.00 | 0.00 | 0.00 | 87 | 996.8 |
| 20260506233406 | 73 | 203 | 2.0 | 2.0 | 0.00 | 0.00 | 0.00 | 87 | 996.7 |
| 20260506233256 | 74 | 203 | 0.0 | 4.0 | 0.00 | 0.00 | 0.00 | 86 | 996.6 |
| 20260506233135 | 74 | 45 | 0.0 | 4.0 | 0.00 | 0.00 | 0.00 | 86 | 996.7 |
| 20260506233035 | 74 | 45 | 0.0 | 4.0 | 0.00 | 0.00 | 0.00 | 86 | 996.7 |
| 20260506232931 | 74 | 45 | 0.0 | 4.0 | 0.00 | 0.00 | 0.00 | 86 | 996.6 |
| 20260506232808 | 74 | 22 | 1.0 | 4.0 | 0.00 | 0.00 | 0.00 | 86 | 996.7 |
| 20260506232649 | 74 | 22 | 1.0 | 4.0 | 0.00 | 0.00 | 0.00 | 86 | 996.7 |
| 20260506232544 | 74 | 22 | 2.0 | 4.0 | 0.00 | 0.00 | 0.00 | 85 | 996.7 |
| 20260506232435 | 74 | 22 | 2.0 | 4.0 | 0.00 | 0.00 | 0.00 | 85 | 996.8 |
| 20260506232331 | 74 | 22 | 2.0 | 4.0 | 0.00 | 0.00 | 0.00 | 85 | 996.6 |
| 20260506232229 | 74 | 22 | 2.0 | 4.0 | 0.00 | 0.00 | 0.00 | 85 | 996.5 |
| 20260506232104 | 74 | 22 | 2.0 | 4.0 | 0.00 | 0.00 | 0.00 | 85 | 996.5 |
| 20260506232029 | 74 | 0 | 3.0 | 4.0 | 0.00 | 0.00 | 0.00 | 86 | 996.5 |
| 20260506231730 | 74 | 22 | 3.0 | 4.0 | 0.00 | 0.00 | 0.00 | 86 | 996.4 |
| 20260506231623 | 74 | 22 | 3.0 | 4.0 | 0.00 | 0.00 | 0.00 | 86 | 996.3 |
| 20260506231514 | 74 | 22 | 3.0 | 4.0 | 0.00 | 0.00 | 0.00 | 86 | 996.3 |
| 20260506231412 | 74 | 22 | 3.0 | 4.0 | 0.00 | 0.00 | 0.00 | 85 | 996.6 |
| 20260506231249 | 75 | 22 | 2.0 | 4.0 | 0.00 | 0.00 | 0.00 | 85 | 996.5 |
| 20260506231157 | 75 | 22 | 2.0 | 4.0 | 0.00 | 0.00 | 0.00 | 85 | 996.6 |
| 20260506231034 | 75 | 22 | 2.0 | 4.0 | 0.00 | 0.00 | 0.00 | 85 | 996.5 |
| 20260506230950 | 75 | 45 | 2.0 | 4.0 | 0.00 | 0.00 | 0.00 | 85 | 996.6 |
| 20260506230805 | 75 | 22 | 2.0 | 4.0 | 0.00 | 0.00 | 0.00 | 85 | 996.4 |
| 20260506230711 | 75 | 22 | 2.0 | 4.0 | 0.00 | 0.00 | 0.00 | 85 | 996.3 |
| 20260506230555 | 75 | 22 | 2.0 | 4.0 | 0.00 | 0.00 | 0.00 | 85 | 996.5 |
| 20260506230441 | 75 | 22 | 2.0 | 4.0 | 0.00 | 0.00 | 0.00 | 85 | 996.5 |
| 20260506230406 | 75 | 22 | 2.0 | 4.0 | 0.00 | 0.00 | 0.00 | 85 | 996.4 |
| 20260506230215 | 75 | 0 | 2.0 | 4.0 | 0.00 | 0.00 | 0.00 | 84 | 996.3 |
| 20260506230107 | 75 | 0 | 2.0 | 4.0 | 0.00 | 0.00 | 0.00 | 84 | 996.4 |
| 20260506225957 | 75 | 0 | 2.0 | 4.0 | 0.00 | 0.00 | 0.00 | 84 | 996.3 |
| 20260506225839 | 75 | 23 | 2.0 | 4.0 | 0.00 | 0.00 | 0.00 | 84 | 996.5 |
| 20260506225737 | 76 | 0 | 2.0 | 4.0 | 0.00 | 0.00 | 0.00 | 83 | 996.4 |
| 20260506225626 | 76 | 0 | 2.0 | 4.0 | 0.00 | 0.00 | 0.00 | 83 | 996.6 |
| 20260506225517 | 76 | 23 | 1.0 | 2.0 | 0.00 | 0.00 | 0.00 | 83 | 996.4 |
| 20260506225401 | 76 | 45 | 0.0 | 0.0 | 0.00 | 0.00 | 0.00 | 83 | 996.5 |
| 20260506225141 | 76 | 180 | 0.0 | 0.0 | 0.00 | 0.00 | 0.00 | 83 | 996.6 |
| 20260506225039 | 76 | 180 | 0.0 | 2.0 | 0.00 | 0.00 | 0.00 | 84 | 996.6 |
| 20260506224919 | 76 | 180 | 0.0 | 2.0 | 0.00 | 0.00 | 0.00 | 84 | 996.6 |
| 20260506224811 | 76 | 203 | 0.0 | 2.0 | 0.00 | 0.00 | 0.00 | 84 | 996.7 |
| 20260506224701 | 76 | 203 | 0.0 | 2.0 | 0.00 | 0.00 | 0.00 | 83 | 996.5 |
| 20260506224551 | 76 | 203 | 0.0 | 2.0 | 0.00 | 0.00 | 0.00 | 83 | 996.6 |
| 20260506224439 | 77 | 225 | 0.0 | 4.0 | 0.00 | 0.00 | 0.00 | 83 | 996.6 |
| 20260506224331 | 77 | 248 | 0.0 | 6.0 | 0.00 | 0.00 | 0.00 | 82 | 996.5 |
| 20260506224221 | 77 | 270 | 0.0 | 6.0 | 0.00 | 0.00 | 0.00 | 82 | 996.4 |
| 20260506224112 | 77 | 270 | 1.0 | 6.0 | 0.00 | 0.00 | 0.00 | 82 | 996.5 |
| 20260506223955 | 77 | 270 | 1.0 | 6.0 | 0.00 | 0.00 | 0.00 | 81 | 996.3 |
| 20260506223846 | 77 | 293 | 1.0 | 6.0 | 0.00 | 0.00 | 0.00 | 81 | 996.4 |
| 20260506223627 | 77 | 45 | 2.0 | 6.0 | 0.00 | 0.00 | 0.00 | 81 | 996.2 |
| 20260506223508 | 77 | 22 | 2.0 | 6.0 | 0.00 | 0.00 | 0.00 | 81 | 996.1 |
| 20260506223407 | 77 | 22 | 4.0 | 6.0 | 0.00 | 0.00 | 0.00 | 81 | 996.0 |
| 20260506223323 | 77 | 22 | 3.0 | 4.0 | 0.00 | 0.00 | 0.00 | 81 | 996.1 |
| 20260506223144 | 77 | 22 | 3.0 | 4.0 | 0.00 | 0.00 | 0.00 | 81 | 995.9 |
| 20260506223032 | 77 | 0 | 2.0 | 4.0 | 0.00 | 0.00 | 0.00 | 81 | 996.0 |
| 20260506222925 | 77 | 22 | 2.0 | 4.0 | 0.00 | 0.00 | 0.00 | 81 | 996.0 |
| 20260506222814 | 76 | 22 | 2.0 | 4.0 | 0.00 | 0.00 | 0.00 | 81 | 995.9 |
| 20260506222546 | 76 | 0 | 2.0 | 4.0 | 0.00 | 0.00 | 0.00 | 82 | 995.9 |
| 20260506222437 | 76 | 22 | 2.0 | 4.0 | 0.00 | 0.00 | 0.00 | 82 | 995.9 |
| 20260506222329 | 76 | 22 | 2.0 | 4.0 | 0.00 | 0.00 | 0.00 | 82 | 996.0 |
| 20260506222229 | 76 | 22 | 2.0 | 4.0 | 0.00 | 0.00 | 0.00 | 82 | 995.8 |
| 20260506222107 | 76 | 22 | 2.0 | 4.0 | 0.00 | 0.00 | 0.00 | 82 | 995.9 |
| 20260506221957 | 76 | 22 | 2.0 | 4.0 | 0.00 | 0.00 | 0.00 | 82 | 995.9 |
| 20260506221849 | 76 | 0 | 2.0 | 4.0 | 0.00 | 0.00 | 0.00 | 82 | 995.8 |
| 20260506221741 | 76 | 22 | 2.0 | 4.0 | 0.00 | 0.00 | 0.00 | 82 | 995.7 |
| 20260506221623 | 76 | 22 | 2.0 | 4.0 | 0.00 | 0.00 | 0.00 | 82 | 995.9 |
| 20260506221522 | 76 | 22 | 2.0 | 4.0 | 0.00 | 0.00 | 0.00 | 82 | 995.8 |
| 20260506221409 | 76 | 22 | 2.0 | 4.0 | 0.00 | 0.00 | 0.00 | 82 | 995.9 |
| 20260506221332 | 76 | 22 | 2.0 | 4.0 | 0.00 | 0.00 | 0.00 | 82 | 995.6 |
| 20260506221257 | 76 | 22 | 2.0 | 6.0 | 0.00 | 0.00 | 0.00 | 81 | 995.6 |
| 20260506221037 | 76 | 22 | 3.0 | 6.0 | 0.00 | 0.00 | 0.00 | 81 | 995.8 |
| 20260506220926 | 76 | 22 | 2.0 | 6.0 | 0.00 | 0.00 | 0.00 | 81 | 995.8 |
| 20260506220817 | 76 | 22 | 2.0 | 6.0 | 0.00 | 0.00 | 0.00 | 81 | 995.7 |
| 20260506220659 | 76 | 22 | 2.0 | 6.0 | 0.00 | 0.00 | 0.00 | 81 | 995.6 |
| 20260506220549 | 76 | 22 | 3.0 | 6.0 | 0.00 | 0.00 | 0.00 | 81 | 995.5 |
| 20260506220441 | 77 | 22 | 3.0 | 6.0 | 0.00 | 0.00 | 0.00 | 80 | 995.5 |
| 20260506220333 | 77 | 22 | 4.0 | 7.0 | 0.00 | 0.00 | 0.00 | 80 | 995.6 |
| 20260506220215 | 77 | 22 | 4.0 | 7.0 | 0.00 | 0.00 | 0.00 | 80 | 995.6 |
| 20260506220138 | 77 | 22 | 4.0 | 7.0 | 0.00 | 0.00 | 0.00 | 80 | 995.6 |
| 20260506220005 | 77 | 22 | 4.0 | 7.0 | 0.00 | 0.00 | 0.00 | 79 | 995.6 |
| 20260506215854 | 77 | 22 | 4.0 | 7.0 | 0.00 | 0.00 | 0.00 | 79 | 995.6 |
| 20260506215738 | 78 | 22 | 4.0 | 7.0 | 0.00 | 0.00 | 0.00 | 78 | 995.6 |
| 20260506215630 | 78 | 22 | 4.0 | 7.0 | 0.00 | 0.00 | 0.00 | 78 | 995.6 |
| 20260506215517 | 78 | 22 | 4.0 | 8.0 | 0.00 | 0.00 | 0.00 | 78 | 995.6 |
| 20260506215416 | 78 | 22 | 4.0 | 8.0 | 0.00 | 0.00 | 0.00 | 78 | 995.5 |
| 20260506215250 | 78 | 22 | 5.0 | 11.0 | 0.00 | 0.00 | 0.00 | 78 | 995.6 |
| 20260506215148 | 78 | 0 | 5.0 | 11.0 | 0.00 | 0.00 | 0.00 | 77 | 995.5 |
| 20260506215036 | 78 | 22 | 5.0 | 11.0 | 0.00 | 0.00 | 0.00 | 77 | 995.6 |
| 20260506214928 | 79 | 22 | 5.0 | 11.0 | 0.00 | 0.00 | 0.00 | 77 | 995.6 |
| 20260506214809 | 79 | 22 | 5.0 | 11.0 | 0.00 | 0.00 | 0.00 | 77 | 995.6 |
| 20260506214701 | 79 | 22 | 5.0 | 11.0 | 0.00 | 0.00 | 0.00 | 76 | 995.5 |
| 20260506214601 | 79 | 22 | 6.0 | 11.0 | 0.00 | 0.00 | 0.00 | 76 | 995.5 |
| 20260506214448 | 79 | 22 | 7.0 | 11.0 | 0.00 | 0.00 | 0.00 | 76 | 995.6 |
| 20260506214328 | 79 | 22 | 8.0 | 11.0 | 0.00 | 0.00 | 0.00 | 76 | 995.4 |
| 20260506214236 | 79 | 22 | 8.0 | 11.0 | 0.00 | 0.00 | 0.00 | 76 | 995.5 |
| 20260506214005 | 80 | 22 | 8.0 | 13.0 | 0.00 | 0.00 | 0.00 | 75 | 995.5 |
| 20260506213738 | 80 | 22 | 8.0 | 13.0 | 0.00 | 0.00 | 0.00 | 75 | 995.4 |
| 20260506213630 | 80 | 22 | 8.0 | 13.0 | 0.00 | 0.00 | 0.00 | 75 | 995.4 |
| 20260506213408 | 80 | 22 | 8.0 | 13.0 | 0.00 | 0.00 | 0.00 | 75 | 995.4 |
| 20260506213300 | 80 | 22 | 8.0 | 13.0 | 0.00 | 0.00 | 0.00 | 74 | 995.2 |
| 20260506213152 | 80 | 0 | 9.0 | 13.0 | 0.00 | 0.00 | 0.00 | 74 | 995.3 |
| 20260506213042 | 80 | 22 | 8.0 | 13.0 | 0.00 | 0.00 | 0.00 | 74 | 995.4 |
| 20260506212921 | 80 | 0 | 8.0 | 13.0 | 0.00 | 0.00 | 0.00 | 74 | 995.3 |
| 20260506212819 | 80 | 22 | 7.0 | 16.0 | 0.00 | 0.00 | 0.00 | 74 | 995.2 |
| 20260506212708 | 80 | 22 | 8.0 | 16.0 | 0.00 | 0.00 | 0.00 | 74 | 995.3 |
| 20260506212604 | 80 | 22 | 9.0 | 16.0 | 0.00 | 0.00 | 0.00 | 74 | 995.2 |
| 20260506212441 | 81 | 0 | 8.0 | 16.0 | 0.00 | 0.00 | 0.00 | 74 | 995.2 |
| 20260506212332 | 81 | 22 | 7.0 | 16.0 | 0.00 | 0.00 | 0.00 | 73 | 995.3 |
| 20260506212230 | 81 | 22 | 8.0 | 16.0 | 0.00 | 0.00 | 0.00 | 73 | 995.1 |
| 20260506212119 | 81 | 22 | 10.0 | 16.0 | 0.00 | 0.00 | 0.00 | 73 | 995.3 |
| 20260506212004 | 81 | 22 | 8.0 | 21.0 | 0.00 | 0.00 | 0.00 | 73 | 995.1 |
| 20260506211854 | 81 | 22 | 9.0 | 21.0 | 0.00 | 0.00 | 0.00 | 72 | 995.2 |
| 20260506211743 | 81 | 0 | 11.0 | 21.0 | 0.00 | 0.00 | 0.00 | 72 | 994.9 |
| 20260506211634 | 81 | 22 | 12.0 | 21.0 | 0.00 | 0.00 | 0.00 | 72 | 995.0 |
| 20260506211606 | 81 | 22 | 10.0 | 21.0 | 0.00 | 0.00 | 0.00 | 72 | 995.0 |
| 20260506211409 | 81 | 22 | 11.0 | 21.0 | 0.00 | 0.00 | 0.00 | 72 | 995.0 |
| 20260506211259 | 81 | 22 | 8.0 | 21.0 | 0.00 | 0.00 | 0.00 | 72 | 995.0 |
| 20260506211151 | 82 | 22 | 9.0 | 21.0 | 0.00 | 0.00 | 0.00 | 71 | 994.8 |
| 20260506211036 | 82 | 0 | 14.0 | 21.0 | 0.00 | 0.00 | 0.00 | 71 | 994.9 |
| 20260506210820 | 82 | 22 | 15.0 | 20.0 | 0.00 | 0.00 | 0.00 | 71 | 994.7 |
| 20260506210711 | 82 | 22 | 15.0 | 18.0 | 0.00 | 0.00 | 0.00 | 71 | 994.8 |
| 20260506210612 | 82 | 0 | 11.0 | 18.0 | 0.00 | 0.00 | 0.00 | 70 | 994.6 |
| 20260506210536 | 82 | 0 | 15.0 | 18.0 | 0.00 | 0.00 | 0.00 | 70 | 994.7 |
| 20260506210341 | 82 | 23 | 13.0 | 18.0 | 0.00 | 0.00 | 0.00 | 70 | 994.6 |
| 20260506210230 | 82 | 0 | 11.0 | 20.0 | 0.00 | 0.00 | 0.00 | 70 | 994.8 |
| 20260506210112 | 83 | 22 | 10.0 | 20.0 | 0.00 | 0.00 | 0.00 | 70 | 994.9 |
| 20260506210007 | 83 | 0 | 13.0 | 20.0 | 0.00 | 0.00 | 0.00 | 69 | 994.9 |
| 20260506205856 | 83 | 0 | 11.0 | 20.0 | 0.00 | 0.00 | 0.00 | 69 | 994.9 |
| 20260506205745 | 83 | 45 | 11.0 | 20.0 | 0.00 | 0.00 | 0.00 | 69 | 994.9 |
| 20260506205636 | 83 | 22 | 12.0 | 20.0 | 0.00 | 0.00 | 0.00 | 69 | 995.1 |
| 20260506205601 | 83 | 0 | 12.0 | 20.0 | 0.00 | 0.00 | 0.00 | 69 | 995.1 |
| 20260506205525 | 83 | 22 | 12.0 | 20.0 | 0.00 | 0.00 | 0.00 | 69 | 995.1 |
| 20260506205311 | 83 | 0 | 14.0 | 18.0 | 0.00 | 0.00 | 0.00 | 68 | 995.0 |
| 20260506205150 | 83 | 23 | 13.0 | 18.0 | 0.00 | 0.00 | 0.00 | 69 | 994.9 |
| 20260506205041 | 83 | 0 | 11.0 | 18.0 | 0.00 | 0.00 | 0.00 | 69 | 995.1 |
| 20260506204932 | 83 | 0 | 12.0 | 18.0 | 0.00 | 0.00 | 0.00 | 69 | 995.0 |
| 20260506204822 | 83 | 0 | 14.0 | 18.0 | 0.00 | 0.00 | 0.00 | 69 | 995.2 |
| 20260506204706 | 83 | 0 | 13.0 | 18.0 | 0.00 | 0.00 | 0.00 | 68 | 995.1 |
| 20260506204556 | 83 | 0 | 13.0 | 18.0 | 0.00 | 0.00 | 0.00 | 68 | 995.3 |
| 20260506204447 | 83 | 22 | 12.0 | 18.0 | 0.00 | 0.00 | 0.00 | 68 | 995.3 |
| 20260506204224 | 83 | 0 | 11.0 | 18.0 | 0.00 | 0.00 | 0.00 | 68 | 995.4 |
| 20260506204115 | 83 | 0 | 10.0 | 18.0 | 0.00 | 0.00 | 0.00 | 68 | 995.5 |
| 20260506204007 | 83 | 22 | 12.0 | 18.0 | 0.00 | 0.00 | 0.00 | 68 | 995.4 |
| 20260506203859 | 84 | 22 | 12.0 | 18.0 | 0.00 | 0.00 | 0.00 | 68 | 995.5 |
| 20260506203741 | 84 | 22 | 14.0 | 18.0 | 0.00 | 0.00 | 0.00 | 67 | 995.4 |
| 20260506203638 | 84 | 22 | 12.0 | 18.0 | 0.00 | 0.00 | 0.00 | 67 | 995.4 |
| 20260506203528 | 84 | 0 | 14.0 | 17.0 | 0.00 | 0.00 | 0.00 | 67 | 995.6 |
| 20260506203418 | 84 | 0 | 11.0 | 17.0 | 0.00 | 0.00 | 0.00 | 68 | 995.6 |
| 20260506203304 | 84 | 22 | 12.0 | 17.0 | 0.00 | 0.00 | 0.00 | 67 | 995.5 |
| 20260506203156 | 84 | 22 | 11.0 | 17.0 | 0.00 | 0.00 | 0.00 | 67 | 995.5 |
| 20260506203048 | 84 | 0 | 11.0 | 17.0 | 0.00 | 0.00 | 0.00 | 67 | 995.7 |
| 20260506202940 | 84 | 22 | 11.0 | 17.0 | 0.00 | 0.00 | 0.00 | 67 | 995.6 |
| 20260506202824 | 84 | 22 | 11.0 | 18.0 | 0.00 | 0.00 | 0.00 | 67 | 995.7 |
| 20260506202712 | 84 | 22 | 12.0 | 18.0 | 0.00 | 0.00 | 0.00 | 67 | 995.7 |
| 20260506202456 | 84 | 0 | 15.0 | 18.0 | 0.00 | 0.00 | 0.00 | 67 | 995.7 |
| 20260506202427 | 84 | 22 | 15.0 | 18.0 | 0.00 | 0.00 | 0.00 | 67 | 995.5 |
| 20260506202232 | 85 | 22 | 11.0 | 18.0 | 0.00 | 0.00 | 0.00 | 67 | 995.9 |
| 20260506202124 | 85 | 22 | 11.0 | 18.0 | 0.00 | 0.00 | 0.00 | 67 | 995.6 |
| 20260506202014 | 85 | 22 | 12.0 | 18.0 | 0.00 | 0.00 | 0.00 | 66 | 995.7 |
| 20260506201855 | 85 | 22 | 12.0 | 18.0 | 0.00 | 0.00 | 0.00 | 66 | 995.8 |
| 20260506201636 | 85 | 0 | 15.0 | 18.0 | 0.00 | 0.00 | 0.00 | 66 | 996.0 |
| 20260506201528 | 85 | 22 | 13.0 | 18.0 | 0.00 | 0.00 | 0.00 | 66 | 995.9 |
| 20260506201410 | 85 | 22 | 15.0 | 18.0 | 0.00 | 0.00 | 0.00 | 66 | 995.9 |
| 20260506201306 | 85 | 0 | 14.0 | 18.0 | 0.00 | 0.00 | 0.00 | 66 | 995.7 |
| 20260506201156 | 85 | 0 | 15.0 | 18.0 | 0.00 | 0.00 | 0.00 | 65 | 995.7 |
| 20260506201054 | 85 | 22 | 15.0 | 18.0 | 0.00 | 0.00 | 0.00 | 65 | 995.7 |
| 20260506200931 | 85 | 0 | 11.0 | 18.0 | 0.00 | 0.00 | 0.00 | 65 | 995.7 |
| 20260506200823 | 85 | 22 | 11.0 | 18.0 | 0.00 | 0.00 | 0.00 | 65 | 995.8 |
| 20260506200711 | 85 | 0 | 13.0 | 18.0 | 0.00 | 0.00 | 0.00 | 65 | 995.8 |
| 20260506200611 | 86 | 22 | 11.0 | 18.0 | 0.00 | 0.00 | 0.00 | 64 | 996.0 |
| 20260506200445 | 86 | 22 | 11.0 | 18.0 | 0.00 | 0.00 | 0.00 | 64 | 995.9 |
| 20260506200343 | 86 | 22 | 11.0 | 18.0 | 0.00 | 0.00 | 0.00 | 64 | 995.9 |
| 20260506200240 | 86 | 45 | 13.0 | 18.0 | 0.00 | 0.00 | 0.00 | 63 | 996.1 |
| 20260506200123 | 86 | 22 | 13.0 | 18.0 | 0.00 | 0.00 | 0.00 | 63 | 996.0 |
| 20260506200005 | 86 | 22 | 12.0 | 18.0 | 0.00 | 0.00 | 0.00 | 63 | 996.0 |
| 20260506195856 | 87 | 0 | 11.0 | 18.0 | 0.00 | 0.00 | 0.00 | 61 | 995.9 |
| 20260506195748 | 87 | 22 | 13.0 | 18.0 | 0.00 | 0.00 | 0.00 | 61 | 996.1 |
| 20260506195646 | 87 | 45 | 15.0 | 18.0 | 0.00 | 0.00 | 0.00 | 59 | 996.2 |
| 20260506195527 | 87 | 22 | 10.0 | 16.0 | 0.00 | 0.00 | 0.00 | 59 | 996.1 |
| 20260506195417 | 87 | 45 | 8.0 | 16.0 | 0.00 | 0.00 | 0.00 | 60 | 996.2 |
| 20260506195306 | 87 | 45 | 10.0 | 16.0 | 0.00 | 0.00 | 0.00 | 60 | 996.0 |
| 20260506195046 | 87 | 45 | 8.0 | 17.0 | 0.00 | 0.00 | 0.00 | 60 | 996.2 |
| 20260506194934 | 87 | 45 | 9.0 | 20.0 | 0.00 | 0.00 | 0.00 | 59 | 996.2 |
| 20260506194834 | 87 | 293 | 11.0 | 20.0 | 0.00 | 0.00 | 0.00 | 59 | 996.4 |
| 20260506194807 | 87 | 45 | 11.0 | 20.0 | 0.00 | 0.00 | 0.00 | 58 | 996.3 |
| 20260506194557 | 87 | 293 | 12.0 | 20.0 | 0.00 | 0.00 | 0.00 | 58 | 996.1 |
| 20260506194455 | 87 | 45 | 9.0 | 20.0 | 0.00 | 0.00 | 0.00 | 58 | 996.2 |
| 20260506194344 | 87 | 293 | 12.0 | 20.0 | 0.00 | 0.00 | 0.00 | 58 | 996.3 |
| 20260506194242 | 87 | 293 | 13.0 | 20.0 | 0.00 | 0.00 | 0.00 | 58 | 996.1 |
| 20260506194119 | 87 | 45 | 13.0 | 20.0 | 0.00 | 0.00 | 0.00 | 59 | 996.3 |
| 20260506194010 | 87 | 293 | 15.0 | 20.0 | 0.00 | 0.00 | 0.00 | 58 | 996.3 |
| 20260506193900 | 87 | 293 | 15.0 | 20.0 | 0.00 | 0.00 | 0.00 | 58 | 996.4 |
| 20260506193752 | 88 | 293 | 14.0 | 18.0 | 0.00 | 0.00 | 0.00 | 58 | 996.2 |
| 20260506193529 | 88 | 45 | 11.0 | 18.0 | 0.00 | 0.00 | 0.00 | 58 | 996.4 |
| 20260506193421 | 88 | 45 | 11.0 | 18.0 | 0.00 | 0.00 | 0.00 | 58 | 996.3 |
| 20260506193316 | 88 | 45 | 11.0 | 18.0 | 0.00 | 0.00 | 0.00 | 57 | 996.4 |
| 20260506193157 | 88 | 293 | 13.0 | 18.0 | 0.00 | 0.00 | 0.00 | 57 | 996.4 |
| 20260506193045 | 88 | 293 | 13.0 | 18.0 | 0.00 | 0.00 | 0.00 | 57 | 996.5 |
| 20260506192937 | 88 | 293 | 8.0 | 17.0 | 0.00 | 0.00 | 0.00 | 58 | 996.6 |
| 20260506192829 | 87 | 293 | 9.0 | 17.0 | 0.00 | 0.00 | 0.00 | 58 | 996.5 |
| 20260506192709 | 87 | 45 | 9.0 | 18.0 | 0.00 | 0.00 | 0.00 | 59 | 996.6 |
| 20260506192455 | 87 | 293 | 10.0 | 18.0 | 0.00 | 0.00 | 0.00 | 59 | 996.6 |
| 20260506192353 | 87 | 45 | 11.0 | 18.0 | 0.00 | 0.00 | 0.00 | 59 | 996.5 |
| 20260506192234 | 87 | 293 | 10.0 | 18.0 | 0.00 | 0.00 | 0.00 | 59 | 996.6 |
| 20260506192126 | 87 | 293 | 12.0 | 18.0 | 0.00 | 0.00 | 0.00 | 59 | 996.6 |
| 20260506192014 | 87 | 45 | 11.0 | 18.0 | 0.00 | 0.00 | 0.00 | 58 | 996.9 |
| 20260506191910 | 87 | 270 | 12.0 | 18.0 | 0.00 | 0.00 | 0.00 | 58 | 996.6 |
| 20260506191750 | 87 | 293 | 9.0 | 18.0 | 0.00 | 0.00 | 0.00 | 58 | 996.7 |
| 20260506191640 | 87 | 293 | 11.0 | 18.0 | 0.00 | 0.00 | 0.00 | 58 | 996.7 |
| 20260506191530 | 87 | 293 | 11.0 | 18.0 | 0.00 | 0.00 | 0.00 | 58 | 996.5 |
| 20260506191422 | 87 | 45 | 11.0 | 18.0 | 0.00 | 0.00 | 0.00 | 58 | 996.7 |
| 20260506191156 | 86 | 270 | 12.0 | 18.0 | 0.00 | 0.00 | 0.00 | 58 | 996.4 |
| 20260506191057 | 86 | 293 | 11.0 | 18.0 | 0.00 | 0.00 | 0.00 | 59 | 996.7 |
| 20260506190946 | 86 | 270 | 11.0 | 18.0 | 0.00 | 0.00 | 0.00 | 59 | 996.5 |
| 20260506190824 | 87 | 293 | 11.0 | 18.0 | 0.00 | 0.00 | 0.00 | 59 | 996.5 |
| 20260506190716 | 87 | 270 | 13.0 | 18.0 | 0.00 | 0.00 | 0.00 | 59 | 996.6 |
| 20260506190608 | 87 | 293 | 15.0 | 18.0 | 0.00 | 0.00 | 0.00 | 58 | 996.5 |
| 20260506190511 | 87 | 45 | 15.0 | 18.0 | 0.00 | 0.00 | 0.00 | 58 | 996.3 |
| 20260506190344 | 87 | 293 | 12.0 | 16.0 | 0.00 | 0.00 | 0.00 | 59 | 996.4 |
| 20260506190241 | 87 | 293 | 9.0 | 16.0 | 0.00 | 0.00 | 0.00 | 59 | 996.3 |
| 20260506190205 | 87 | 293 | 11.0 | 16.0 | 0.00 | 0.00 | 0.00 | 60 | 996.3 |
| 20260506190128 | 87 | 22 | 12.0 | 17.0 | 0.00 | 0.00 | 0.00 | 60 | 996.3 |
| 20260506185903 | 87 | 293 | 11.0 | 17.0 | 0.00 | 0.00 | 0.00 | 60 | 996.1 |
| 20260506185750 | 87 | 22 | 8.0 | 18.0 | 0.00 | 0.00 | 0.00 | 60 | 996.3 |
| 20260506185650 | 87 | 22 | 9.0 | 18.0 | 0.00 | 0.00 | 0.00 | 60 | 996.3 |
| 20260506185542 | 87 | 22 | 9.0 | 18.0 | 0.00 | 0.00 | 0.00 | 60 | 996.3 |
| 20260506185422 | 87 | 22 | 10.0 | 18.0 | 0.00 | 0.00 | 0.00 | 60 | 996.2 |
| 20260506185311 | 87 | 293 | 11.0 | 18.0 | 0.00 | 0.00 | 0.00 | 59 | 996.2 |
| 20260506185201 | 88 | 45 | 12.0 | 18.0 | 0.00 | 0.00 | 0.00 | 59 | 996.2 |
| 20260506185126 | 88 | 45 | 12.0 | 18.0 | 0.00 | 0.00 | 0.00 | 59 | 996.2 |
| 20260506184938 | 88 | 293 | 10.0 | 18.0 | 0.00 | 0.00 | 0.00 | 59 | 996.1 |
| 20260506184830 | 88 | 45 | 13.0 | 18.0 | 0.00 | 0.00 | 0.00 | 58 | 996.4 |
| 20260506184721 | 88 | 45 | 9.0 | 18.0 | 0.00 | 0.00 | 0.00 | 58 | 996.1 |
| 20260506184612 | 87 | 45 | 9.0 | 18.0 | 0.00 | 0.00 | 0.00 | 59 | 996.2 |
| 20260506184504 | 87 | 45 | 11.0 | 18.0 | 0.00 | 0.00 | 0.00 | 59 | 996.5 |
| 20260506184351 | 87 | 22 | 12.0 | 18.0 | 0.00 | 0.00 | 0.00 | 59 | 996.3 |
| 20260506184249 | 87 | 293 | 13.0 | 18.0 | 0.00 | 0.00 | 0.00 | 59 | 996.4 |
| 20260506184131 | 87 | 22 | 12.0 | 17.0 | 0.00 | 0.00 | 0.00 | 59 | 996.4 |
| 20260506184013 | 88 | 22 | 13.0 | 17.0 | 0.00 | 0.00 | 0.00 | 58 | 996.3 |
| 20260506183903 | 88 | 293 | 13.0 | 17.0 | 0.00 | 0.00 | 0.00 | 58 | 996.4 |
| 20260506183801 | 88 | 22 | 14.0 | 22.0 | 0.00 | 0.00 | 0.00 | 58 | 996.4 |
| 20260506183653 | 88 | 22 | 11.0 | 22.0 | 0.00 | 0.00 | 0.00 | 57 | 996.5 |
| 20260506183532 | 88 | 45 | 11.0 | 22.0 | 0.00 | 0.00 | 0.00 | 58 | 996.4 |
| 20260506183319 | 89 | 293 | 13.0 | 22.0 | 0.00 | 0.00 | 0.00 | 58 | 996.3 |
| 20260506183209 | 89 | 293 | 15.0 | 22.0 | 0.00 | 0.00 | 0.00 | 56 | 996.4 |
| 20260506183051 | 89 | 270 | 13.0 | 22.0 | 0.00 | 0.00 | 0.00 | 56 | 996.6 |
| 20260506182942 | 88 | 270 | 14.0 | 22.0 | 0.00 | 0.00 | 0.00 | 56 | 996.5 |
| 20260506182832 | 88 | 45 | 16.0 | 22.0 | 0.00 | 0.00 | 0.00 | 57 | 996.3 |
| 20260506182724 | 88 | 293 | 16.0 | 21.0 | 0.00 | 0.00 | 0.00 | 57 | 996.5 |
| 20260506182607 | 89 | 270 | 13.0 | 20.0 | 0.00 | 0.00 | 0.00 | 57 | 996.4 |
| 20260506182459 | 89 | 45 | 15.0 | 20.0 | 0.00 | 0.00 | 0.00 | 57 | 996.4 |
| 20260506182349 | 89 | 45 | 14.0 | 20.0 | 0.00 | 0.00 | 0.00 | 55 | 996.6 |
| 20260506182241 | 90 | 45 | 14.0 | 21.0 | 0.00 | 0.00 | 0.00 | 56 | 996.5 |
| 20260506182124 | 90 | 293 | 16.0 | 21.0 | 0.00 | 0.00 | 0.00 | 56 | 996.5 |
| 20260506182015 | 90 | 45 | 12.0 | 22.0 | 0.00 | 0.00 | 0.00 | 55 | 996.4 |
| 20260506181915 | 90 | 45 | 10.0 | 22.0 | 0.00 | 0.00 | 0.00 | 58 | 996.4 |
| 20260506181805 | 89 | 270 | 14.0 | 22.0 | 0.00 | 0.00 | 0.00 | 58 | 996.4 |
| 20260506181640 | 89 | 293 | 12.0 | 22.0 | 0.00 | 0.00 | 0.00 | 56 | 996.5 |
| 20260506181534 | 89 | 270 | 11.0 | 22.0 | 0.00 | 0.00 | 0.00 | 57 | 996.5 |
| 20260506181426 | 89 | 45 | 16.0 | 22.0 | 0.00 | 0.00 | 0.00 | 58 | 996.7 |
| 20260506181321 | 89 | 293 | 17.0 | 22.0 | 0.00 | 0.00 | 0.00 | 58 | 996.6 |
| 20260506181203 | 89 | 293 | 15.0 | 22.0 | 0.00 | 0.00 | 0.00 | 57 | 996.7 |
| 20260506181053 | 89 | 270 | 14.0 | 22.0 | 0.00 | 0.00 | 0.00 | 58 | 996.8 |
| 20260506181026 | 89 | 45 | 15.0 | 20.0 | 0.00 | 0.00 | 0.00 | 57 | 996.7 |
| 20260506180945 | 89 | 45 | 15.0 | 20.0 | 0.00 | 0.00 | 0.00 | 57 | 996.8 |
| 20260506180717 | 88 | 293 | 9.0 | 17.0 | 0.00 | 0.00 | 0.00 | 57 | 996.6 |
| 20260506180614 | 88 | 45 | 11.0 | 20.0 | 0.00 | 0.00 | 0.00 | 59 | 996.6 |
| 20260506180501 | 88 | 293 | 12.0 | 20.0 | 0.00 | 0.00 | 0.00 | 59 | 996.7 |
| 20260506180359 | 89 | 45 | 12.0 | 20.0 | 0.00 | 0.00 | 0.00 | 59 | 996.7 |
| 20260506180239 | 89 | 22 | 12.0 | 20.0 | 0.00 | 0.00 | 0.00 | 58 | 996.8 |
| 20260506180130 | 89 | 270 | 11.0 | 20.0 | 0.00 | 0.00 | 0.00 | 58 | 996.6 |
| 20260506180021 | 89 | 45 | 10.0 | 20.0 | 0.00 | 0.00 | 0.00 | 57 | 996.9 |
| 20260506175918 | 89 | 45 | 12.0 | 20.0 | 0.00 | 0.00 | 0.00 | 59 | 996.6 |
| 20260506175800 | 89 | 0 | 12.0 | 20.0 | 0.00 | 0.00 | 0.00 | 59 | 996.6 |
| 20260506175650 | 89 | 45 | 14.0 | 20.0 | 0.00 | 0.00 | 0.00 | 59 | 996.5 |
| 20260506175539 | 89 | 22 | 12.0 | 17.0 | 0.00 | 0.00 | 0.00 | 59 | 996.8 |
| 20260506175429 | 88 | 45 | 10.0 | 18.0 | 0.00 | 0.00 | 0.00 | 60 | 996.7 |
| 20260506175327 | 88 | 22 | 11.0 | 18.0 | 0.00 | 0.00 | 0.00 | 59 | 996.9 |
| 20260506175205 | 88 | 293 | 11.0 | 20.0 | 0.00 | 0.00 | 0.00 | 60 | 996.8 |
| 20260506175057 | 88 | 293 | 11.0 | 20.0 | 0.00 | 0.00 | 0.00 | 61 | 996.8 |
| 20260506174949 | 88 | 293 | 14.0 | 20.0 | 0.00 | 0.00 | 0.00 | 60 | 996.9 |
| 20260506174833 | 89 | 293 | 14.0 | 20.0 | 0.00 | 0.00 | 0.00 | 59 | 996.9 |
| 20260506174739 | 89 | 293 | 11.0 | 20.0 | 0.00 | 0.00 | 0.00 | 59 | 996.9 |
| 20260506174704 | 88 | 22 | 13.0 | 20.0 | 0.00 | 0.00 | 0.00 | 59 | 996.7 |
| 20260506174508 | 88 | 45 | 14.0 | 20.0 | 0.00 | 0.00 | 0.00 | 59 | 996.9 |
| 20260506174349 | 88 | 293 | 15.0 | 20.0 | 0.00 | 0.00 | 0.00 | 60 | 997.1 |
| 20260506174138 | 88 | 45 | 15.0 | 20.0 | 0.00 | 0.00 | 0.00 | 60 | 997.0 |
| 20260506174028 | 88 | 45 | 11.0 | 21.0 | 0.00 | 0.00 | 0.00 | 60 | 997.0 |
| 20260506173910 | 89 | 45 | 13.0 | 21.0 | 0.00 | 0.00 | 0.00 | 60 | 997.2 |
| 20260506173759 | 89 | 293 | 11.0 | 21.0 | 0.00 | 0.00 | 0.00 | 60 | 997.2 |
| 20260506173649 | 88 | 293 | 10.0 | 21.0 | 0.00 | 0.00 | 0.00 | 60 | 997.2 |
| 20260506173541 | 88 | 293 | 10.0 | 21.0 | 0.00 | 0.00 | 0.00 | 60 | 997.1 |
| 20260506173429 | 88 | 293 | 13.0 | 21.0 | 0.00 | 0.00 | 0.00 | 60 | 997.1 |
| 20260506173318 | 88 | 22 | 12.0 | 21.0 | 0.00 | 0.00 | 0.00 | 60 | 997.3 |
| 20260506173208 | 88 | 22 | 15.0 | 21.0 | 0.00 | 0.00 | 0.00 | 61 | 997.2 |
| 20260506173059 | 88 | 22 | 14.0 | 22.0 | 0.00 | 0.00 | 0.00 | 59 | 997.4 |
| 20260506172943 | 88 | 45 | 13.0 | 22.0 | 0.00 | 0.00 | 0.00 | 59 | 997.5 |
| 20260506172832 | 88 | 45 | 14.0 | 22.0 | 0.00 | 0.00 | 0.00 | 59 | 997.3 |
| 20260506172740 | 88 | 45 | 11.0 | 22.0 | 0.00 | 0.00 | 0.00 | 61 | 997.4 |
| 20260506172621 | 88 | 45 | 13.0 | 22.0 | 0.00 | 0.00 | 0.00 | 61 | 997.4 |
| 20260506172502 | 88 | 45 | 10.0 | 22.0 | 0.00 | 0.00 | 0.00 | 60 | 997.5 |
| 20260506172410 | 88 | 45 | 11.0 | 22.0 | 0.00 | 0.00 | 0.00 | 61 | 997.6 |
| 20260506172334 | 88 | 293 | 16.0 | 22.0 | 0.00 | 0.00 | 0.00 | 60 | 997.5 |
| 20260506172138 | 88 | 22 | 17.0 | 22.0 | 0.00 | 0.00 | 0.00 | 60 | 997.6 |
| 20260506172017 | 88 | 22 | 15.0 | 18.0 | 0.00 | 0.00 | 0.00 | 60 | 997.6 |
| 20260506171909 | 88 | 45 | 13.0 | 18.0 | 0.00 | 0.00 | 0.00 | 60 | 997.7 |
| 20260506171809 | 88 | 45 | 13.0 | 18.0 | 0.00 | 0.00 | 0.00 | 60 | 997.6 |
| 20260506171537 | 88 | 22 | 11.0 | 18.0 | 0.00 | 0.00 | 0.00 | 61 | 997.6 |
| 20260506171434 | 88 | 45 | 15.0 | 18.0 | 0.00 | 0.00 | 0.00 | 62 | 997.7 |
| 20260506171326 | 88 | 270 | 14.0 | 18.0 | 0.00 | 0.00 | 0.00 | 61 | 997.6 |
| 20260506171217 | 88 | 22 | 10.0 | 18.0 | 0.00 | 0.00 | 0.00 | 62 | 997.6 |
| 20260506171057 | 88 | 45 | 11.0 | 18.0 | 0.00 | 0.00 | 0.00 | 61 | 997.8 |
| 20260506170946 | 88 | 45 | 12.0 | 18.0 | 0.00 | 0.00 | 0.00 | 61 | 997.7 |
| 20260506170838 | 87 | 22 | 12.0 | 18.0 | 0.00 | 0.00 | 0.00 | 62 | 997.7 |
| 20260506170730 | 87 | 45 | 12.0 | 17.0 | 0.00 | 0.00 | 0.00 | 62 | 998.0 |
| 20260506170612 | 87 | 22 | 13.0 | 17.0 | 0.00 | 0.00 | 0.00 | 62 | 997.7 |
| 20260506170504 | 87 | 45 | 12.0 | 17.0 | 0.00 | 0.00 | 0.00 | 63 | 997.9 |
| 20260506170358 | 87 | 22 | 11.0 | 17.0 | 0.00 | 0.00 | 0.00 | 63 | 997.7 |
| 20260506170255 | 87 | 22 | 12.0 | 17.0 | 0.00 | 0.00 | 0.00 | 62 | 997.8 |
| 20260506170022 | 87 | 22 | 11.0 | 17.0 | 0.00 | 0.00 | 0.00 | 62 | 998.0 |
| 20260506165914 | 87 | 45 | 12.0 | 17.0 | 0.00 | 0.00 | 0.00 | 62 | 998.2 |
| 20260506165806 | 87 | 45 | 12.0 | 17.0 | 0.00 | 0.00 | 0.00 | 62 | 998.0 |
| 20260506165650 | 87 | 45 | 11.0 | 17.0 | 0.00 | 0.00 | 0.00 | 62 | 998.0 |
| 20260506165540 | 87 | 45 | 11.0 | 17.0 | 0.00 | 0.00 | 0.00 | 62 | 998.0 |
| 20260506165432 | 87 | 45 | 12.0 | 17.0 | 0.00 | 0.00 | 0.00 | 63 | 998.1 |
| 20260506165323 | 87 | 0 | 11.0 | 18.0 | 0.00 | 0.00 | 0.00 | 63 | 998.2 |
| 20260506165206 | 87 | 45 | 13.0 | 18.0 | 0.00 | 0.00 | 0.00 | 62 | 998.1 |
| 20260506164951 | 88 | 293 | 9.0 | 22.0 | 0.00 | 0.00 | 0.00 | 62 | 998.2 |
| 20260506164842 | 87 | 22 | 9.0 | 22.0 | 0.00 | 0.00 | 0.00 | 61 | 998.1 |
| 20260506164724 | 87 | 22 | 11.0 | 22.0 | 0.00 | 0.00 | 0.00 | 62 | 998.4 |
| 20260506164622 | 87 | 45 | 15.0 | 22.0 | 0.00 | 0.00 | 0.00 | 62 | 998.3 |
| 20260506164510 | 87 | 45 | 15.0 | 23.0 | 0.00 | 0.00 | 0.00 | 62 | 998.4 |
| 20260506164407 | 87 | 22 | 14.0 | 23.0 | 0.00 | 0.00 | 0.00 | 62 | 998.5 |
| 20260506164243 | 87 | 45 | 13.0 | 23.0 | 0.00 | 0.00 | 0.00 | 61 | 998.4 |
| 20260506164134 | 87 | 22 | 13.0 | 23.0 | 0.00 | 0.00 | 0.00 | 62 | 998.4 |
| 20260506164031 | 87 | 45 | 15.0 | 23.0 | 0.00 | 0.00 | 0.00 | 62 | 998.6 |
| 20260506163806 | 87 | 45 | 15.0 | 23.0 | 0.00 | 0.00 | 0.00 | 61 | 998.5 |
| 20260506163654 | 88 | 45 | 13.0 | 23.0 | 0.00 | 0.00 | 0.00 | 61 | 998.7 |
| 20260506163546 | 87 | 45 | 15.0 | 23.0 | 0.00 | 0.00 | 0.00 | 61 | 998.8 |
| 20260506163436 | 87 | 22 | 12.0 | 17.0 | 0.00 | 0.00 | 0.00 | 61 | 998.6 |
| 20260506163318 | 87 | 45 | 12.0 | 18.0 | 0.00 | 0.00 | 0.00 | 63 | 998.6 |
| 20260506163209 | 87 | 45 | 13.0 | 18.0 | 0.00 | 0.00 | 0.00 | 62 | 998.5 |
| 20260506163106 | 88 | 293 | 14.0 | 18.0 | 0.00 | 0.00 | 0.00 | 61 | 998.7 |
| 20260506162954 | 87 | 45 | 13.0 | 18.0 | 0.00 | 0.00 | 0.00 | 61 | 998.8 |
| 20260506162836 | 87 | 45 | 13.0 | 20.0 | 0.00 | 0.00 | 0.00 | 62 | 998.7 |
| 20260506162734 | 87 | 293 | 13.0 | 20.0 | 0.00 | 0.00 | 0.00 | 63 | 998.8 |
| 20260506162624 | 87 | 22 | 13.0 | 20.0 | 0.00 | 0.00 | 0.00 | 63 | 998.7 |
| 20260506162355 | 87 | 22 | 13.0 | 20.0 | 0.00 | 0.00 | 0.00 | 61 | 999.0 |
| 20260506162247 | 87 | 45 | 12.0 | 20.0 | 0.00 | 0.00 | 0.00 | 63 | 999.0 |
| 20260506162139 | 87 | 45 | 11.0 | 20.0 | 0.00 | 0.00 | 0.00 | 64 | 998.9 |
| 20260506162033 | 87 | 22 | 11.0 | 20.0 | 0.00 | 0.00 | 0.00 | 63 | 998.9 |
| 20260506161913 | 87 | 22 | 16.0 | 20.0 | 0.00 | 0.00 | 0.00 | 64 | 999.1 |
| 20260506161805 | 87 | 22 | 16.0 | 20.0 | 0.00 | 0.00 | 0.00 | 64 | 999.3 |
| 20260506161703 | 87 | 45 | 11.0 | 18.0 | 0.00 | 0.00 | 0.00 | 64 | 999.0 |
| 20260506161551 | 87 | 45 | 9.0 | 18.0 | 0.00 | 0.00 | 0.00 | 62 | 999.5 |
| 20260506161431 | 87 | 45 | 11.0 | 18.0 | 0.00 | 0.00 | 0.00 | 65 | 999.3 |
| 20260506161323 | 88 | 22 | 13.0 | 18.0 | 0.00 | 0.00 | 0.00 | 63 | 999.3 |
| 20260506161223 | 88 | 45 | 11.0 | 18.0 | 0.00 | 0.00 | 0.00 | 62 | 999.5 |
| 20260506161109 | 87 | 45 | 11.0 | 18.0 | 0.00 | 0.00 | 0.00 | 63 | 999.4 |
| 20260506160843 | 87 | 22 | 13.0 | 16.0 | 0.00 | 0.00 | 0.00 | 64 | 999.5 |
| 20260506160734 | 87 | 22 | 11.0 | 17.0 | 0.00 | 0.00 | 0.00 | 64 | 999.5 |
| 20260506160626 | 87 | 22 | 9.0 | 17.0 | 0.00 | 0.00 | 0.00 | 65 | 999.6 |
| 20260506160509 | 87 | 22 | 9.0 | 17.0 | 0.00 | 0.00 | 0.00 | 65 | 999.7 |
| 20260506160359 | 87 | 45 | 11.0 | 17.0 | 0.00 | 0.00 | 0.00 | 65 | 999.8 |
| 20260506160251 | 86 | 22 | 11.0 | 17.0 | 0.00 | 0.00 | 0.00 | 65 | 999.7 |
| 20260506160142 | 86 | 45 | 10.0 | 17.0 | 0.00 | 0.00 | 0.00 | 66 | 999.9 |
| 20260506160033 | 86 | 22 | 11.0 | 17.0 | 0.00 | 0.00 | 0.00 | 65 | 999.6 |
| 20260506155811 | 86 | 45 | 13.0 | 17.0 | 0.00 | 0.00 | 0.00 | 65 | 999.7 |